Observation data for Palo Duro Canyon State Park Rim on 03/12/2018      Previous  Date  Next       Current Mesonet Observations  Soil Data  Daily Summary Page  Observations in Plain Language
KPD1 120500Z 08004KT 05/M08 A3037 RMK A01 T00491079  RH  039%=      5-min Rain = 0
KPD1 120501Z 10004KT 05/M08 A3037 RMK A01 T00481078  RH  039%=      5-min Rain = 0
KPD1 120502Z 08005KT 05/M08 A3037 RMK A01 T00481078  RH  040%=      5-min Rain = 0
KPD1 120503Z 08006KT 05/M08 A3037 RMK A01 T00491075  RH  040%=      5-min Rain = 0
KPD1 120504Z 09006KT 05/M07 A3037 RMK A01 T00511073  RH  040%=      5-min Rain = 0
KPD1 120505Z 08005KT 05/M07 A3037 RMK A01 T00531074  RH  040%=      5-min Rain = 0
KPD1 120506Z 08004KT 05/M08 A3037 RMK A01 T00531075  RH  039%=      5-min Rain = 0
KPD1 120507Z 07004KT 05/M08 A3037 RMK A01 T00531075  RH  039%=      5-min Rain = 0
KPD1 120508Z 08005KT 05/M08 A3037 RMK A01 T00531075  RH  039%=      5-min Rain = 0
KPD1 120509Z 08005KT 05/M08 A3037 RMK A01 T00531075  RH  039%=      5-min Rain = 0
KPD1 120510Z 08004KT 05/M08 A3037 RMK A01 T00531075  RH  039%=      5-min Rain = 0
KPD1 120511Z 07004KT 05/M08 A3037 RMK A01 T00521075  RH  039%=      5-min Rain = 0
KPD1 120512Z 08005KT 05/M08 A3037 RMK A01 T00521075  RH  039%=      5-min Rain = 0
KPD1 120513Z 08004KT 05/M08 A3037 RMK A01 T00521075  RH  039%=      5-min Rain = 0
KPD1 120514Z 07003KT 05/M08 A3037 RMK A01 T00521076  RH  039%=      5-min Rain = 0
KPD1 120515Z 07004KT 05/M08 A3037 RMK A01 T00511076  RH  039%=      5-min Rain = 0
KPD1 120516Z 06004KT 05/M08 A3037 RMK A01 T00511077  RH  039%=      5-min Rain = 0
KPD1 120517Z 06004KT 05/M08 A3037 RMK A01 T00491079  RH  039%=      5-min Rain = 0
KPD1 120518Z 08005KT 05/M08 A3037 RMK A01 T00491077  RH  040%=      5-min Rain = 0
KPD1 120519Z 07005KT 05/M08 A3037 RMK A01 T00491076  RH  040%=      5-min Rain = 0
KPD1 120520Z 08004KT 05/M08 A3037 RMK A01 T00481075  RH  040%=      5-min Rain = 0
KPD1 120521Z 07006KT 05/M08 A3037 RMK A01 T00481075  RH  040%=      5-min Rain = 0
KPD1 120522Z 07005KT 05/M08 A3037 RMK A01 T00481075  RH  041%=      5-min Rain = 0
KPD1 120523Z 07006KT 05/M08 A3037 RMK A01 T00481075  RH  041%=      5-min Rain = 0
KPD1 120524Z 07005KT 05/M07 A3037 RMK A01 T00481074  RH  041%=      5-min Rain = 0
KPD1 120525Z 07005KT 05/M07 A3037 RMK A01 T00481074  RH  041%=      5-min Rain = 0
KPD1 120526Z 07003KT 05/M08 A3037 RMK A01 T00481075  RH  041%=      5-min Rain = 0
KPD1 120527Z 08003KT 05/M08 A3037 RMK A01 T00481075  RH  041%=      5-min Rain = 0
KPD1 120528Z 07004KT 05/M08 A3037 RMK A01 T00481075  RH  041%=      5-min Rain = 0
KPD1 120529Z 07004KT 05/M08 A3037 RMK A01 T00471076  RH  040%=      5-min Rain = 0
KPD1 120530Z 08004KT 05/M08 A3037 RMK A01 T00471077  RH  040%=      5-min Rain = 0
KPD1 120531Z 08003KT 05/M08 A3037 RMK A01 T00461077  RH  040%=      5-min Rain = 0
KPD1 120532Z 09003KT 05/M08 A3037 RMK A01 T00451077  RH  041%=      5-min Rain = 0
KPD1 120533Z 08004KT 05/M08 A3037 RMK A01 T00451077  RH  041%=      5-min Rain = 0
KPD1 120534Z 09004KT 04/M08 A3037 RMK A01 T00441076  RH  041%=      5-min Rain = 0
KPD1 120535Z 09005KT 04/M08 A3037 RMK A01 T00441076  RH  042%=      5-min Rain = 0
KPD1 120536Z 08003KT 04/M08 A3037 RMK A01 T00441075  RH  042%=      5-min Rain = 0
KPD1 120537Z 08005KT 04/M08 A3037 RMK A01 T00431076  RH  042%=      5-min Rain = 0
KPD1 120538Z 08005KT 04/M08 A3037 RMK A01 T00431075  RH  042%=      5-min Rain = 0
KPD1 120539Z 08005KT 04/M07 A3037 RMK A01 T00441074  RH  042%=      5-min Rain = 0
KPD1 120540Z 07003KT 04/M07 A3037 RMK A01 T00441074  RH  042%=      5-min Rain = 0
KPD1 120541Z 07003KT 05/M07 A3037 RMK A01 T00451074  RH  042%=      5-min Rain = 0
KPD1 120542Z 09003KT 05/M08 A3037 RMK A01 T00451075  RH  041%=      5-min Rain = 0
KPD1 120543Z 08003KT 05/M08 A3037 RMK A01 T00451075  RH  041%=      5-min Rain = 0
KPD1 120544Z 08003KT 04/M08 A3037 RMK A01 T00441075  RH  041%=      5-min Rain = 0
KPD1 120545Z 09002KT 04/M08 A3037 RMK A01 T00441075  RH  042%=      5-min Rain = 0
KPD1 120546Z 09001KT 04/M08 A3037 RMK A01 T00431075  RH  042%=      5-min Rain = 0
KPD1 120547Z 09002KT 04/M08 A3037 RMK A01 T00431075  RH  042%=      5-min Rain = 0
KPD1 120548Z 09002KT 04/M08 A3037 RMK A01 T00421075  RH  042%=      5-min Rain = 0
KPD1 120549Z 09002KT 04/M08 A3037 RMK A01 T00411076  RH  042%=      5-min Rain = 0
KPD1 120550Z 08002KT 04/M08 A3037 RMK A01 T00411075  RH  042%=      5-min Rain = 0
KPD1 120551Z 08002KT 04/M08 A3037 RMK A01 T00411075  RH  042%=      5-min Rain = 0
KPD1 120552Z 08002KT 04/M08 A3037 RMK A01 T00401075  RH  043%=      5-min Rain = 0
KPD1 120553Z 08002KT 04/M07 A3037 RMK A01 T00401074  RH  043%=      5-min Rain = 0
KPD1 120554Z 08003KT 04/M08 A3037 RMK A01 T00401075  RH  043%=      5-min Rain = 0
KPD1 120555Z 08002KT 04/M07 A3037 RMK A01 T00401074  RH  043%=      5-min Rain = 0
KPD1 120556Z 08003KT 04/M07 A3037 RMK A01 T00401074  RH  043%=      5-min Rain = 0
KPD1 120557Z 07003KT 04/M08 A3037 RMK A01 T00391075  RH  043%=      5-min Rain = 0
KPD1 120558Z 09003KT 04/M08 A3037 RMK A01 T00391075  RH  043%=      5-min Rain = 0
KPD1 120559Z 09003KT 04/M08 A3037 RMK A01 T00381075  RH  043%=      5-min Rain = 0
KPD1 120600Z 08003KT 04/M08 A3037 RMK A01 T00391075  RH  043%=      5-min Rain = 0
KPD1 120601Z 08004KT 04/M08 A3037 RMK A01 T00391075  RH  043%=      5-min Rain = 0
KPD1 120602Z 08004KT 04/M07 A3037 RMK A01 T00401074  RH  043%=      5-min Rain = 0
KPD1 120603Z 08003KT 04/M07 A3037 RMK A01 T00401074  RH  043%=      5-min Rain = 0
KPD1 120604Z 07003KT 04/M08 A3037 RMK A01 T00401075  RH  043%=      5-min Rain = 0
KPD1 120605Z 08003KT 04/M08 A3037 RMK A01 T00391075  RH  043%=      5-min Rain = 0
KPD1 120606Z 07003KT 04/M08 A3037 RMK A01 T00391075  RH  043%=      5-min Rain = 0
KPD1 120607Z 07002KT 04/M08 A3037 RMK A01 T00391075  RH  043%=      5-min Rain = 0
KPD1 120608Z 08003KT 04/M08 A3037 RMK A01 T00381075  RH  043%=      5-min Rain = 0
KPD1 120609Z 09004KT 04/M08 A3037 RMK A01 T00381076  RH  043%=      5-min Rain = 0
KPD1 120610Z 08004KT 04/M08 A3037 RMK A01 T00371076  RH  043%=      5-min Rain = 0
KPD1 120611Z 08003KT 04/M08 A3037 RMK A01 T00371076  RH  044%=      5-min Rain = 0
KPD1 120612Z 08002KT 04/M08 A3037 RMK A01 T00361076  RH  044%=      5-min Rain = 0
KPD1 120613Z 07002KT 04/M08 A3037 RMK A01 T00361075  RH  044%=      5-min Rain = 0
KPD1 120614Z 07001KT 04/M08 A3037 RMK A01 T00361075  RH  044%=      5-min Rain = 0
KPD1 120615Z 05001KT 04/M08 A3037 RMK A01 T00371075  RH  044%=      5-min Rain = 0
KPD1 120616Z 05000KT 04/M08 A3037 RMK A01 T00371075  RH  044%=      5-min Rain = 0
KPD1 120617Z 04001KT 04/M08 A3037 RMK A01 T00361076  RH  044%=      5-min Rain = 0
KPD1 120618Z 03001KT 04/M08 A3037 RMK A01 T00351077  RH  044%=      5-min Rain = 0
KPD1 120619Z 02000KT 03/M08 A3037 RMK A01 T00341078  RH  044%=      5-min Rain = 0
KPD1 120620Z 03000KT 03/M08 A3037 RMK A01 T00331078  RH  044%=      5-min Rain = 0
KPD1 120621Z 04001KT 03/M08 A3037 RMK A01 T00321077  RH  045%=      5-min Rain = 0
KPD1 120622Z 04001KT 03/M08 A3037 RMK A01 T00331076  RH  045%=      5-min Rain = 0
KPD1 120623Z 04001KT 03/M08 A3037 RMK A01 T00341076  RH  045%=      5-min Rain = 0
KPD1 120624Z 04001KT 03/M08 A3037 RMK A01 T00331078  RH  044%=      5-min Rain = 0
KPD1 120625Z 04001KT 03/M08 A3037 RMK A01 T00321077  RH  045%=      5-min Rain = 0
KPD1 120626Z 05001KT 03/M08 A3037 RMK A01 T00321077  RH  045%=      5-min Rain = 0
KPD1 120627Z 08002KT 03/M07 A3038 RMK A01 T00331074  RH  045%=      5-min Rain = 0
KPD1 120628Z 08002KT 03/M07 A3037 RMK A01 T00331074  RH  045%=      5-min Rain = 0
KPD1 120629Z 09003KT 04/M07 A3038 RMK A01 T00351072  RH  046%=      5-min Rain = 0
KPD1 120630Z 09003KT 04/M07 A3038 RMK A01 T00351072  RH  045%=      5-min Rain = 0
KPD1 120631Z 10003KT 04/M07 A3038 RMK A01 T00351072  RH  045%=      5-min Rain = 0
KPD1 120632Z 08003KT 04/M07 A3038 RMK A01 T00351073  RH  045%=      5-min Rain = 0
KPD1 120633Z 10003KT 04/M07 A3038 RMK A01 T00361071  RH  045%=      5-min Rain = 0
KPD1 120634Z 11003KT 04/M07 A3038 RMK A01 T00361072  RH  045%=      5-min Rain = 0
KPD1 120635Z 09002KT 04/M07 A3038 RMK A01 T00351073  RH  045%=      5-min Rain = 0
KPD1 120636Z 09001KT 04/M07 A3038 RMK A01 T00351072  RH  045%=      5-min Rain = 0
KPD1 120637Z 09001KT 04/M07 A3038 RMK A01 T00351071  RH  046%=      5-min Rain = 0
KPD1 120638Z 07002KT 04/M07 A3038 RMK A01 T00351071  RH  046%=      5-min Rain = 0
KPD1 120639Z 07002KT 04/M07 A3038 RMK A01 T00361069  RH  046%=      5-min Rain = 0
KPD1 120640Z 07002KT 04/M07 A3038 RMK A01 T00371070  RH  046%=      5-min Rain = 0
KPD1 120641Z 06001KT 04/M07 A3038 RMK A01 T00371070  RH  046%=      5-min Rain = 0
KPD1 120642Z 06002KT 04/M07 A3038 RMK A01 T00371070  RH  046%=      5-min Rain = 0
KPD1 120643Z 06002KT 04/M07 A3038 RMK A01 T00361070  RH  046%=      5-min Rain = 0
KPD1 120644Z 06002KT 04/M07 A3038 RMK A01 T00361071  RH  046%=      5-min Rain = 0
KPD1 120645Z 06001KT 04/M07 A3038 RMK A01 T00361071  RH  046%=      5-min Rain = 0
KPD1 120646Z 06002KT 04/M07 A3038 RMK A01 T00351072  RH  045%=      5-min Rain = 0
KPD1 120647Z 05002KT 04/M07 A3038 RMK A01 T00351073  RH  045%=      5-min Rain = 0
KPD1 120648Z 05001KT 03/M07 A3038 RMK A01 T00331074  RH  045%=      5-min Rain = 0
KPD1 120649Z 06002KT 03/M07 A3038 RMK A01 T00331073  RH  046%=      5-min Rain = 0
KPD1 120650Z 06002KT 03/M07 A3038 RMK A01 T00331072  RH  046%=      5-min Rain = 0
KPD1 120651Z 06001KT 03/M07 A3038 RMK A01 T00331072  RH  046%=      5-min Rain = 0
KPD1 120652Z 07001KT 03/M07 A3038 RMK A01 T00331072  RH  046%=      5-min Rain = 0
KPD1 120653Z 06001KT 03/M07 A3038 RMK A01 T00331072  RH  046%=      5-min Rain = 0
KPD1 120654Z 07001KT 03/M07 A3038 RMK A01 T00331072  RH  046%=      5-min Rain = 0
KPD1 120655Z 07001KT 03/M07 A3038 RMK A01 T00321072  RH  046%=      5-min Rain = 0
KPD1 120656Z 07000KT 03/M07 A3038 RMK A01 T00311072  RH  046%=      5-min Rain = 0
KPD1 120657Z 07001KT 03/M07 A3038 RMK A01 T00311072  RH  047%=      5-min Rain = 0
KPD1 120658Z 06001KT 03/M07 A3038 RMK A01 T00311071  RH  047%=      5-min Rain = 0
KPD1 120659Z 06001KT 03/M07 A3038 RMK A01 T00321071  RH  047%=      5-min Rain = 0
KPD1 120700Z 05001KT 03/M07 A3038 RMK A01 T00331070  RH  047%=      5-min Rain = 0
KPD1 120701Z 05001KT 03/M07 A3038 RMK A01 T00331071  RH  046%=      5-min Rain = 0
KPD1 120702Z 05002KT 03/M07 A3038 RMK A01 T00331072  RH  046%=      5-min Rain = 0
KPD1 120703Z 06002KT 03/M07 A3038 RMK A01 T00331072  RH  046%=      5-min Rain = 0
KPD1 120704Z 06002KT 03/M07 A3038 RMK A01 T00331072  RH  046%=      5-min Rain = 0
KPD1 120705Z 05002KT 03/M07 A3038 RMK A01 T00341071  RH  046%=      5-min Rain = 0
KPD1 120706Z 05002KT 03/M07 A3038 RMK A01 T00341071  RH  046%=      5-min Rain = 0
KPD1 120707Z 05001KT 03/M07 A3038 RMK A01 T00341072  RH  046%=      5-min Rain = 0
KPD1 120708Z 06002KT 03/M07 A3038 RMK A01 T00341072  RH  046%=      5-min Rain = 0
KPD1 120709Z 07002KT 03/M07 A3038 RMK A01 T00341072  RH  046%=      5-min Rain = 0
KPD1 120710Z 07002KT 03/M07 A3038 RMK A01 T00341072  RH  046%=      5-min Rain = 0
KPD1 120711Z 06001KT 03/M07 A3038 RMK A01 T00341073  RH  046%=      5-min Rain = 0
KPD1 120712Z 06001KT 04/M07 A3038 RMK A01 T00351072  RH  045%=      5-min Rain = 0
KPD1 120713Z 06002KT 03/M07 A3038 RMK A01 T00341073  RH  045%=      5-min Rain = 0
KPD1 120714Z 06002KT 04/M07 A3038 RMK A01 T00351072  RH  045%=      5-min Rain = 0
KPD1 120715Z 06001KT 04/M07 A3038 RMK A01 T00351074  RH  045%=      5-min Rain = 0
KPD1 120716Z 07002KT 03/M07 A3038 RMK A01 T00341074  RH  045%=      5-min Rain = 0
KPD1 120717Z 08004KT 03/M07 A3038 RMK A01 T00331072  RH  046%=      5-min Rain = 0
KPD1 120718Z 08003KT 03/M07 A3038 RMK A01 T00341071  RH  046%=      5-min Rain = 0
KPD1 120719Z 07003KT 03/M07 A3038 RMK A01 T00341072  RH  046%=      5-min Rain = 0
KPD1 120720Z 07004KT 03/M07 A3038 RMK A01 T00341072  RH  046%=      5-min Rain = 0
KPD1 120721Z 07004KT 03/M07 A3038 RMK A01 T00341072  RH  046%=      5-min Rain = 0
KPD1 120722Z 06004KT 03/M07 A3038 RMK A01 T00341073  RH  045%=      5-min Rain = 0
KPD1 120723Z 06005KT 03/M07 A3038 RMK A01 T00341074  RH  045%=      5-min Rain = 0
KPD1 120724Z 06004KT 03/M07 A3038 RMK A01 T00341074  RH  045%=      5-min Rain = 0
KPD1 120725Z 07004KT 03/M08 A3038 RMK A01 T00331075  RH  045%=      5-min Rain = 0
KPD1 120726Z 06005KT 03/M08 A3038 RMK A01 T00331076  RH  045%=      5-min Rain = 0
KPD1 120727Z 06004KT 03/M07 A3038 RMK A01 T00331074  RH  045%=      5-min Rain = 0
KPD1 120728Z 07005KT 03/M07 A3038 RMK A01 T00331074  RH  046%=      5-min Rain = 0
KPD1 120729Z 07005KT 03/M07 A3038 RMK A01 T00331073  RH  046%=      5-min Rain = 0
KPD1 120730Z 06005KT 03/M07 A3038 RMK A01 T00331073  RH  046%=      5-min Rain = 0
KPD1 120731Z 07006KT 03/M07 A3038 RMK A01 T00331074  RH  046%=      5-min Rain = 0
KPD1 120732Z 07005KT 03/M07 A3038 RMK A01 T00331073  RH  046%=      5-min Rain = 0
KPD1 120733Z 08005KT 03/M07 A3038 RMK A01 T00331073  RH  046%=      5-min Rain = 0
KPD1 120734Z 07005KT 03/M07 A3038 RMK A01 T00341072  RH  046%=      5-min Rain = 0
KPD1 120735Z 06004KT 03/M07 A3038 RMK A01 T00341071  RH  046%=      5-min Rain = 0
KPD1 120736Z 07004KT 04/M07 A3038 RMK A01 T00351071  RH  046%=      5-min Rain = 0
KPD1 120737Z 07004KT 03/M07 A3038 RMK A01 T00341072  RH  046%=      5-min Rain = 0
KPD1 120738Z 07004KT 03/M07 A3038 RMK A01 T00341072  RH  046%=      5-min Rain = 0
KPD1 120739Z 07004KT 03/M07 A3038 RMK A01 T00321073  RH  046%=      5-min Rain = 0
KPD1 120740Z 07004KT 03/M07 A3038 RMK A01 T00321072  RH  046%=      5-min Rain = 0
KPD1 120741Z 08005KT 03/M07 A3038 RMK A01 T00321070  RH  047%=      5-min Rain = 0
KPD1 120742Z 08004KT 03/M07 A3038 RMK A01 T00321069  RH  047%=      5-min Rain = 0
KPD1 120743Z 07004KT 03/M07 A3038 RMK A01 T00321069  RH  048%=      5-min Rain = 0
KPD1 120744Z 07004KT 03/M07 A3038 RMK A01 T00321068  RH  048%=      5-min Rain = 0
KPD1 120745Z 07003KT 03/M07 A3038 RMK A01 T00321069  RH  048%=      5-min Rain = 0
KPD1 120746Z 07004KT 03/M07 A3038 RMK A01 T00321069  RH  048%=      5-min Rain = 0
KPD1 120747Z 07004KT 03/M07 A3038 RMK A01 T00321069  RH  048%=      5-min Rain = 0
KPD1 120748Z 08004KT 03/M07 A3038 RMK A01 T00321069  RH  048%=      5-min Rain = 0
KPD1 120749Z 08004KT 03/M07 A3038 RMK A01 T00321069  RH  048%=      5-min Rain = 0
KPD1 120750Z 08004KT 03/M07 A3038 RMK A01 T00321069  RH  048%=      5-min Rain = 0
KPD1 120751Z 08004KT 03/M07 A3038 RMK A01 T00321069  RH  048%=      5-min Rain = 0
KPD1 120752Z 09004KT 03/M07 A3038 RMK A01 T00311069  RH  048%=      5-min Rain = 0
KPD1 120753Z 09003KT 03/M07 A3038 RMK A01 T00301070  RH  048%=      5-min Rain = 0
KPD1 120754Z 10003KT 03/M07 A3038 RMK A01 T00301070  RH  048%=      5-min Rain = 0
KPD1 120755Z 10002KT 03/M07 A3038 RMK A01 T00301069  RH  048%=      5-min Rain = 0
KPD1 120756Z 10002KT 03/M07 A3038 RMK A01 T00291069  RH  048%=      5-min Rain = 0
KPD1 120757Z 10002KT 03/M07 A3038 RMK A01 T00291069  RH  048%=      5-min Rain = 0
KPD1 120758Z 10003KT 03/M07 A3037 RMK A01 T00281070  RH  049%=      5-min Rain = 0
KPD1 120759Z 10002KT 03/M07 A3038 RMK A01 T00271070  RH  049%=      5-min Rain = 0
KPD1 120800Z 11001KT 03/M07 A3038 RMK A01 T00271070  RH  049%=      5-min Rain = 0
KPD1 120801Z 11001KT 03/M07 A3038 RMK A01 T00271070  RH  049%=      5-min Rain = 0
KPD1 120802Z 11000KT 03/M07 A3038 RMK A01 T00261070  RH  049%=      5-min Rain = 0
KPD1 120803Z 00000KT 03/M07 A3038 RMK A01 T00251071  RH  049%=      5-min Rain = 0
KPD1 120804Z 11000KT 02/M07 A3038 RMK A01 T00241071  RH  049%=      5-min Rain = 0
KPD1 120805Z 11000KT 02/M07 A3038 RMK A01 T00241071  RH  050%=      5-min Rain = 0
KPD1 120806Z 00000KT 02/M07 A3038 RMK A01 T00241070  RH  050%=      5-min Rain = 0
KPD1 120807Z 00000KT 02/M07 A3038 RMK A01 T00231070  RH  050%=      5-min Rain = 0
KPD1 120808Z 00000KT 02/M07 A3038 RMK A01 T00231071  RH  050%=      5-min Rain = 0
KPD1 120809Z 11000KT 02/M07 A3038 RMK A01 T00221071  RH  050%=      5-min Rain = 0
KPD1 120810Z 11000KT 02/M07 A3038 RMK A01 T00211071  RH  051%=      5-min Rain = 0
KPD1 120811Z 00000KT 02/M07 A3038 RMK A01 T00211071  RH  051%=      5-min Rain = 0
KPD1 120812Z 11001KT 02/M07 A3038 RMK A01 T00201071  RH  051%=      5-min Rain = 0
KPD1 120813Z 11001KT 02/M07 A3038 RMK A01 T00191071  RH  051%=      5-min Rain = 0
KPD1 120814Z 11001KT 02/M07 A3038 RMK A01 T00201070  RH  051%=      5-min Rain = 0
KPD1 120815Z 11002KT 02/M07 A3038 RMK A01 T00211070  RH  051%=      5-min Rain = 0
KPD1 120816Z 11002KT 02/M07 A3038 RMK A01 T00221070  RH  051%=      5-min Rain = 0
KPD1 120817Z 10002KT 02/M07 A3038 RMK A01 T00221070  RH  050%=      5-min Rain = 0
KPD1 120818Z 11002KT 02/M07 A3038 RMK A01 T00221071  RH  050%=      5-min Rain = 0
KPD1 120819Z 10002KT 02/M07 A3038 RMK A01 T00221070  RH  050%=      5-min Rain = 0
KPD1 120820Z 11002KT 02/M07 A3038 RMK A01 T00221070  RH  050%=      5-min Rain = 0
KPD1 120821Z 10001KT 02/M07 A3038 RMK A01 T00221071  RH  050%=      5-min Rain = 0
KPD1 120822Z 11001KT 02/M07 A3038 RMK A01 T00221071  RH  050%=      5-min Rain = 0
KPD1 120823Z 11001KT 02/M07 A3038 RMK A01 T00221071  RH  050%=      5-min Rain = 0
KPD1 120824Z 11001KT 02/M07 A3038 RMK A01 T00211071  RH  050%=      5-min Rain = 0
KPD1 120825Z 11001KT 02/M07 A3038 RMK A01 T00211071  RH  050%=      5-min Rain = 0
KPD1 120826Z 11001KT 02/M07 A3038 RMK A01 T00211071  RH  051%=      5-min Rain = 0
KPD1 120827Z 11001KT 02/M07 A3038 RMK A01 T00211071  RH  051%=      5-min Rain = 0
KPD1 120828Z 11001KT 02/M07 A3038 RMK A01 T00211071  RH  051%=      5-min Rain = 0
KPD1 120829Z 10001KT 02/M07 A3038 RMK A01 T00201071  RH  051%=      5-min Rain = 0
KPD1 120830Z 10001KT 02/M07 A3038 RMK A01 T00211070  RH  051%=      5-min Rain = 0
KPD1 120831Z 10001KT 02/M07 A3038 RMK A01 T00211070  RH  051%=      5-min Rain = 0
KPD1 120832Z 10001KT 02/M07 A3038 RMK A01 T00211070  RH  051%=      5-min Rain = 0
KPD1 120833Z 09001KT 02/M07 A3038 RMK A01 T00221070  RH  051%=      5-min Rain = 0
KPD1 120834Z 09001KT 02/M07 A3038 RMK A01 T00221070  RH  051%=      5-min Rain = 0
KPD1 120835Z 09001KT 02/M07 A3038 RMK A01 T00221070  RH  050%=      5-min Rain = 0
KPD1 120836Z 09001KT 02/M07 A3038 RMK A01 T00221071  RH  050%=      5-min Rain = 0
KPD1 120837Z 09001KT 02/M07 A3038 RMK A01 T00221071  RH  050%=      5-min Rain = 0
KPD1 120838Z 09001KT 02/M07 A3038 RMK A01 T00201071  RH  051%=      5-min Rain = 0
KPD1 120839Z 09000KT 02/M07 A3037 RMK A01 T00201071  RH  051%=      5-min Rain = 0
KPD1 120840Z 00000KT 02/M07 A3037 RMK A01 T00181072  RH  051%=      5-min Rain = 0
KPD1 120841Z 00000KT 02/M07 A3037 RMK A01 T00181071  RH  052%=      5-min Rain = 0
KPD1 120842Z 00000KT 02/M07 A3037 RMK A01 T00171071  RH  052%=      5-min Rain = 0
KPD1 120843Z 00000KT 02/M07 A3037 RMK A01 T00171071  RH  052%=      5-min Rain = 0
KPD1 120844Z 00000KT 02/M07 A3037 RMK A01 T00161071  RH  052%=      5-min Rain = 0
KPD1 120845Z 00000KT 02/M07 A3037 RMK A01 T00151072  RH  052%=      5-min Rain = 0
KPD1 120846Z 09000KT 01/M07 A3037 RMK A01 T00141072  RH  053%=      5-min Rain = 0
KPD1 120847Z 09001KT 01/M07 A3037 RMK A01 T00141071  RH  053%=      5-min Rain = 0
KPD1 120848Z 09001KT 02/M07 A3037 RMK A01 T00151071  RH  053%=      5-min Rain = 0
KPD1 120849Z 09001KT 02/M07 A3037 RMK A01 T00151070  RH  053%=      5-min Rain = 0
KPD1 120850Z 09001KT 02/M07 A3037 RMK A01 T00161070  RH  053%=      5-min Rain = 0
KPD1 120851Z 09001KT 02/M07 A3037 RMK A01 T00171070  RH  052%=      5-min Rain = 0
KPD1 120852Z 09001KT 02/M07 A3037 RMK A01 T00191070  RH  052%=      5-min Rain = 0
KPD1 120853Z 09002KT 02/M07 A3037 RMK A01 T00201070  RH  051%=      5-min Rain = 0
KPD1 120854Z 09002KT 02/M07 A3037 RMK A01 T00201070  RH  051%=      5-min Rain = 0
KPD1 120855Z 08002KT 02/M07 A3037 RMK A01 T00211070  RH  051%=      5-min Rain = 0
KPD1 120856Z 08002KT 02/M07 A3037 RMK A01 T00211071  RH  051%=      5-min Rain = 0
KPD1 120857Z 08003KT 02/M07 A3037 RMK A01 T00201071  RH  051%=      5-min Rain = 0
KPD1 120858Z 08003KT 02/M07 A3037 RMK A01 T00191071  RH  051%=      5-min Rain = 0
KPD1 120859Z 09002KT 02/M07 A3037 RMK A01 T00191072  RH  051%=      5-min Rain = 0
KPD1 120900Z 09002KT 02/M07 A3037 RMK A01 T00181072  RH  051%=      5-min Rain = 0
KPD1 120901Z 08002KT 02/M07 A3037 RMK A01 T00171072  RH  052%=      5-min Rain = 0
KPD1 120902Z 09002KT 02/M07 A3037 RMK A01 T00171072  RH  052%=      5-min Rain = 0
KPD1 120903Z 09002KT 02/M07 A3036 RMK A01 T00171072  RH  052%=      5-min Rain = 0
KPD1 120904Z 08002KT 02/M07 A3036 RMK A01 T00171072  RH  052%=      5-min Rain = 0
KPD1 120905Z 08002KT 02/M07 A3036 RMK A01 T00171073  RH  051%=      5-min Rain = 0
KPD1 120906Z 08002KT 02/M07 A3036 RMK A01 T00171073  RH  051%=      5-min Rain = 0
KPD1 120907Z 08001KT 02/M08 A3036 RMK A01 T00151075  RH  051%=      5-min Rain = 0
KPD1 120908Z 08001KT 01/M08 A3036 RMK A01 T00131077  RH  051%=      5-min Rain = 0
KPD1 120909Z 09001KT 01/M08 A3036 RMK A01 T00111077  RH  052%=      5-min Rain = 0
KPD1 120910Z 08001KT 01/M08 A3036 RMK A01 T00101076  RH  053%=      5-min Rain = 0
KPD1 120911Z 08001KT 01/M08 A3036 RMK A01 T00091077  RH  053%=      5-min Rain = 0
KPD1 120912Z 08001KT 01/M08 A3036 RMK A01 T00081076  RH  053%=      5-min Rain = 0
KPD1 120913Z 08001KT 01/M08 A3036 RMK A01 T00081076  RH  054%=      5-min Rain = 0
KPD1 120914Z 08001KT 01/M08 A3036 RMK A01 T00071076  RH  054%=      5-min Rain = 0
KPD1 120915Z 08001KT 01/M08 A3036 RMK A01 T00071076  RH  054%=      5-min Rain = 0
KPD1 120916Z 08001KT 01/M08 A3036 RMK A01 T00071076  RH  054%=      5-min Rain = 0
KPD1 120917Z 08001KT 01/M07 A3036 RMK A01 T00071074  RH  054%=      5-min Rain = 0
KPD1 120918Z 08001KT 01/M07 A3036 RMK A01 T00081074  RH  054%=      5-min Rain = 0
KPD1 120919Z 08001KT 01/M07 A3036 RMK A01 T00091073  RH  054%=      5-min Rain = 0
KPD1 120920Z 08001KT 01/M07 A3036 RMK A01 T00101072  RH  054%=      5-min Rain = 0
KPD1 120921Z 08001KT 01/M07 A3036 RMK A01 T00111072  RH  054%=      5-min Rain = 0
KPD1 120922Z 08001KT 01/M07 A3036 RMK A01 T00121072  RH  053%=      5-min Rain = 0
KPD1 120923Z 08001KT 01/M07 A3036 RMK A01 T00131072  RH  053%=      5-min Rain = 0
KPD1 120924Z 08001KT 01/M07 A3036 RMK A01 T00131072  RH  053%=      5-min Rain = 0
KPD1 120925Z 08000KT 01/M07 A3036 RMK A01 T00131072  RH  053%=      5-min Rain = 0
KPD1 120926Z 00000KT 01/M07 A3036 RMK A01 T00131072  RH  053%=      5-min Rain = 0
KPD1 120927Z 00000KT 01/M07 A3036 RMK A01 T00131072  RH  053%=      5-min Rain = 0
KPD1 120928Z 00000KT 01/M07 A3036 RMK A01 T00131072  RH  053%=      5-min Rain = 0
KPD1 120929Z 00000KT 01/M07 A3036 RMK A01 T00141072  RH  053%=      5-min Rain = 0
KPD1 120930Z 00000KT 01/M07 A3036 RMK A01 T00141073  RH  053%=      5-min Rain = 0
KPD1 120931Z 00000KT 01/M07 A3036 RMK A01 T00141073  RH  052%=      5-min Rain = 0
KPD1 120932Z 00000KT 02/M07 A3036 RMK A01 T00151074  RH  052%=      5-min Rain = 0
KPD1 120933Z 00000KT 02/M07 A3036 RMK A01 T00151073  RH  052%=      5-min Rain = 0
KPD1 120934Z 08001KT 02/M07 A3036 RMK A01 T00151073  RH  052%=      5-min Rain = 0
KPD1 120935Z 08001KT 02/M07 A3036 RMK A01 T00161072  RH  052%=      5-min Rain = 0
KPD1 120936Z 08001KT 02/M07 A3036 RMK A01 T00161072  RH  052%=      5-min Rain = 0
KPD1 120937Z 09001KT 02/M07 A3036 RMK A01 T00161071  RH  052%=      5-min Rain = 0
KPD1 120938Z 10001KT 02/M07 A3036 RMK A01 T00161070  RH  053%=      5-min Rain = 0
KPD1 120939Z 09002KT 02/M07 A3036 RMK A01 T00171068  RH  053%=      5-min Rain = 0
KPD1 120940Z 08001KT 02/M07 A3036 RMK A01 T00191067  RH  053%=      5-min Rain = 0
KPD1 120941Z 08002KT 02/M07 A3036 RMK A01 T00201067  RH  053%=      5-min Rain = 0
KPD1 120942Z 08002KT 02/M07 A3036 RMK A01 T00201067  RH  052%=      5-min Rain = 0
KPD1 120943Z 07002KT 02/M07 A3036 RMK A01 T00201068  RH  052%=      5-min Rain = 0
KPD1 120944Z 06003KT 02/M07 A3036 RMK A01 T00201069  RH  052%=      5-min Rain = 0
KPD1 120945Z 06002KT 02/M07 A3036 RMK A01 T00191069  RH  052%=      5-min Rain = 0
KPD1 120946Z 05002KT 02/M07 A3036 RMK A01 T00181070  RH  052%=      5-min Rain = 0
KPD1 120947Z 05002KT 02/M07 A3036 RMK A01 T00171071  RH  052%=      5-min Rain = 0
KPD1 120948Z 05001KT 02/M07 A3036 RMK A01 T00161071  RH  052%=      5-min Rain = 0
KPD1 120949Z 04001KT 02/M07 A3036 RMK A01 T00151072  RH  052%=      5-min Rain = 0
KPD1 120950Z 04000KT 01/M07 A3036 RMK A01 T00141073  RH  052%=      5-min Rain = 0
KPD1 120951Z 04001KT 01/M07 A3036 RMK A01 T00131074  RH  052%=      5-min Rain = 0
KPD1 120952Z 04001KT 01/M07 A3036 RMK A01 T00121074  RH  053%=      5-min Rain = 0
KPD1 120953Z 04000KT 01/M07 A3036 RMK A01 T00121073  RH  053%=      5-min Rain = 0
KPD1 120954Z 03001KT 01/M07 A3036 RMK A01 T00111073  RH  053%=      5-min Rain = 0
KPD1 120955Z 04001KT 01/M07 A3036 RMK A01 T00121073  RH  053%=      5-min Rain = 0
KPD1 120956Z 05000KT 01/M07 A3036 RMK A01 T00111073  RH  053%=      5-min Rain = 0
KPD1 120957Z 00000KT 01/M07 A3036 RMK A01 T00111072  RH  054%=      5-min Rain = 0
KPD1 120958Z 03000KT 01/M07 A3036 RMK A01 T00111072  RH  054%=      5-min Rain = 0
KPD1 120959Z 03000KT 01/M07 A3036 RMK A01 T00111073  RH  054%=      5-min Rain = 0
KPD1 121000Z 03000KT 01/M07 A3036 RMK A01 T00101074  RH  054%=      5-min Rain = 0
KPD1 121001Z 00000KT 01/M08 A3036 RMK A01 T00081075  RH  054%=      5-min Rain = 0
KPD1 121002Z 35001KT 01/M08 A3036 RMK A01 T00061076  RH  054%=      5-min Rain = 0
KPD1 121003Z 33001KT 00/M08 A3036 RMK A01 T00031079  RH  054%=      5-min Rain = 0
KPD1 121004Z 34000KT 00/08 A3036 RMK A01 T00000-81  RH  054%=      5-min Rain = 0
KPD1 121005Z 33001KT M00/M08 A3036 RMK A01 T10011081  RH  055%=      5-min Rain = 0
KPD1 121006Z 33002KT M00/M08 A3036 RMK A01 T10021080  RH  056%=      5-min Rain = 0
KPD1 121007Z 32003KT M00/M08 A3036 RMK A01 T10041083  RH  055%=      5-min Rain = 0
KPD1 121008Z 32003KT M01/M09 A3036 RMK A01 T10081087  RH  055%=      5-min Rain = 0
KPD1 121009Z 32003KT M01/M09 A3036 RMK A01 T10121089  RH  056%=      5-min Rain = 0
KPD1 121010Z 32003KT M01/M09 A3036 RMK A01 T10141089  RH  056%=      5-min Rain = 0
KPD1 121011Z 32003KT M02/M09 A3036 RMK A01 T10151088  RH  057%=      5-min Rain = 0
KPD1 121012Z 32003KT M02/M09 A3036 RMK A01 T10161087  RH  058%=      5-min Rain = 0
KPD1 121013Z 32003KT M02/M09 A3036 RMK A01 T10151086  RH  059%=      5-min Rain = 0
KPD1 121014Z 32002KT M02/M08 A3036 RMK A01 T10151084  RH  059%=      5-min Rain = 0
KPD1 121015Z 32002KT M01/M08 A3036 RMK A01 T10141084  RH  059%=      5-min Rain = 0
KPD1 121016Z 33002KT M01/M08 A3036 RMK A01 T10141084  RH  059%=      5-min Rain = 0
KPD1 121017Z 32002KT M01/M08 A3036 RMK A01 T10141084  RH  059%=      5-min Rain = 0
KPD1 121018Z 33002KT M01/M08 A3036 RMK A01 T10141084  RH  059%=      5-min Rain = 0
KPD1 121019Z 33002KT M02/M09 A3036 RMK A01 T10151085  RH  059%=      5-min Rain = 0
KPD1 121020Z 33003KT M02/M09 A3036 RMK A01 T10151085  RH  059%=      5-min Rain = 0
KPD1 121021Z 33003KT M02/M09 A3036 RMK A01 T10161086  RH  059%=      5-min Rain = 0
KPD1 121022Z 33002KT M02/M09 A3036 RMK A01 T10161085  RH  059%=      5-min Rain = 0
KPD1 121023Z 32003KT M02/M09 A3036 RMK A01 T10161086  RH  059%=      5-min Rain = 0
KPD1 121024Z 31003KT M02/M09 A3036 RMK A01 T10161086  RH  059%=      5-min Rain = 0
KPD1 121025Z 30004KT M02/M09 A3037 RMK A01 T10171088  RH  058%=      5-min Rain = 0
KPD1 121026Z 30004KT M02/M09 A3037 RMK A01 T10191091  RH  058%=      5-min Rain = 0
KPD1 121027Z 30004KT M02/M09 A3037 RMK A01 T10201093  RH  058%=      5-min Rain = 0
KPD1 121028Z 31003KT M02/M09 A3037 RMK A01 T10221094  RH  058%=      5-min Rain = 0
KPD1 121029Z 31003KT M02/M10 A3037 RMK A01 T10221095  RH  058%=      5-min Rain = 0
KPD1 121030Z 30004KT M02/M10 A3037 RMK A01 T10231095  RH  058%=      5-min Rain = 0
KPD1 121031Z 30004KT M02/M10 A3037 RMK A01 T10231096  RH  058%=      5-min Rain = 0
KPD1 121032Z 30004KT M02/M10 A3037 RMK A01 T10241097  RH  057%=      5-min Rain = 0
KPD1 121033Z 29005KT M02/M10 A3037 RMK A01 T10241098  RH  057%=      5-min Rain = 0
KPD1 121034Z 29005KT M02/M10 A3037 RMK A01 T10241098  RH  057%=      5-min Rain = 0
KPD1 121035Z 29005KT M02/M10 A3037 RMK A01 T10241099  RH  057%=      5-min Rain = 0
KPD1 121036Z 29006KT M02/M10 A3037 RMK A01 T10241099  RH  057%=      5-min Rain = 0
KPD1 121037Z 29005KT M02/M10 A3037 RMK A01 T10241100  RH  056%=      5-min Rain = 0
KPD1 121038Z 29005KT M02/M10 A3037 RMK A01 T10241100  RH  056%=      5-min Rain = 0
KPD1 121039Z 29005KT M02/M10 A3037 RMK A01 T10241101  RH  056%=      5-min Rain = 0
KPD1 121040Z 29005KT M02/M10 A3037 RMK A01 T10231101  RH  055%=      5-min Rain = 0
KPD1 121041Z 29006KT M02/M10 A3037 RMK A01 T10231101  RH  055%=      5-min Rain = 0
KPD1 121042Z 29006KT M02/M10 A3037 RMK A01 T10231101  RH  055%=      5-min Rain = 0
KPD1 121043Z 28006KT M02/M10 A3037 RMK A01 T10231103  RH  054%=      5-min Rain = 0
KPD1 121044Z 28007KT M02/M11 A3037 RMK A01 T10241106  RH  053%=      5-min Rain = 0
KPD1 121045Z 28007KT M03/M11 A3037 RMK A01 T10251107  RH  053%=      5-min Rain = 0
KPD1 121046Z 28007KT M03/M11 A3037 RMK A01 T10261108  RH  053%=      5-min Rain = 0
KPD1 121047Z 28007KT M03/M11 A3037 RMK A01 T10261109  RH  053%=      5-min Rain = 0
KPD1 121048Z 28006KT M03/M11 A3037 RMK A01 T10261109  RH  053%=      5-min Rain = 0
KPD1 121049Z 28005KT M03/M11 A3037 RMK A01 T10261109  RH  053%=      5-min Rain = 0
KPD1 121050Z 28005KT M03/M11 A3037 RMK A01 T10251107  RH  053%=      5-min Rain = 0
KPD1 121051Z 28005KT M02/M11 A3037 RMK A01 T10241105  RH  054%=      5-min Rain = 0
KPD1 121052Z 28005KT M02/M11 A3037 RMK A01 T10241105  RH  054%=      5-min Rain = 0
KPD1 121053Z 28006KT M02/M10 A3037 RMK A01 T10231104  RH  054%=      5-min Rain = 0
KPD1 121054Z 28006KT M02/M11 A3037 RMK A01 T10241105  RH  054%=      5-min Rain = 0
KPD1 121055Z 28006KT M02/M11 A3037 RMK A01 T10231105  RH  054%=      5-min Rain = 0
KPD1 121056Z 28005KT M02/M11 A3037 RMK A01 T10231105  RH  054%=      5-min Rain = 0
KPD1 121057Z 28005KT M02/M11 A3037 RMK A01 T10231105  RH  053%=      5-min Rain = 0
KPD1 121058Z 28004KT M02/M11 A3037 RMK A01 T10231105  RH  053%=      5-min Rain = 0
KPD1 121059Z 28005KT M02/M11 A3037 RMK A01 T10231105  RH  053%=      5-min Rain = 0
KPD1 121100Z 28004KT M02/M11 A3037 RMK A01 T10231105  RH  053%=      5-min Rain = 0
KPD1 121101Z 28004KT M02/M11 A3037 RMK A01 T10231105  RH  053%=      5-min Rain = 0
KPD1 121102Z 28004KT M02/M10 A3037 RMK A01 T10221104  RH  053%=      5-min Rain = 0
KPD1 121103Z 28004KT M02/M10 A3037 RMK A01 T10221103  RH  054%=      5-min Rain = 0
KPD1 121104Z 28005KT M02/M10 A3037 RMK A01 T10211102  RH  054%=      5-min Rain = 0
KPD1 121105Z 28005KT M02/M10 A3037 RMK A01 T10211102  RH  054%=      5-min Rain = 0
KPD1 121106Z 29005KT M02/M10 A3037 RMK A01 T10201101  RH  054%=      5-min Rain = 0
KPD1 121107Z 28005KT M02/M10 A3037 RMK A01 T10191100  RH  054%=      5-min Rain = 0
KPD1 121108Z 28006KT M02/M10 A3037 RMK A01 T10181100  RH  053%=      5-min Rain = 0
KPD1 121109Z 28006KT M02/M10 A3037 RMK A01 T10181102  RH  053%=      5-min Rain = 0
KPD1 121110Z 28006KT M02/M10 A3037 RMK A01 T10191104  RH  052%=      5-min Rain = 0
KPD1 121111Z 28006KT M02/M11 A3037 RMK A01 T10201106  RH  052%=      5-min Rain = 0
KPD1 121112Z 28006KT M02/M11 A3037 RMK A01 T10201107  RH  052%=      5-min Rain = 0
KPD1 121113Z 28005KT M02/M11 A3037 RMK A01 T10201107  RH  052%=      5-min Rain = 0
KPD1 121114Z 28005KT M02/M11 A3037 RMK A01 T10201106  RH  052%=      5-min Rain = 0
KPD1 121115Z 28006KT M02/M11 A3037 RMK A01 T10201105  RH  052%=      5-min Rain = 0
KPD1 121116Z 28007KT M02/M10 A3037 RMK A01 T10191104  RH  052%=      5-min Rain = 0
KPD1 121117Z 28007KT M02/M10 A3037 RMK A01 T10181104  RH  052%=      5-min Rain = 0
KPD1 121118Z 28006KT M02/M11 A3037 RMK A01 T10191106  RH  051%=      5-min Rain = 0
KPD1 121119Z 28006KT M02/M11 A3037 RMK A01 T10201110  RH  050%=      5-min Rain = 0
KPD1 121120Z 28006KT M02/M11 A3037 RMK A01 T10211112  RH  050%=      5-min Rain = 0
KPD1 121121Z 28006KT M02/M11 A3037 RMK A01 T10231113  RH  050%=      5-min Rain = 0
KPD1 121122Z 28007KT M02/M11 A3037 RMK A01 T10231113  RH  050%=      5-min Rain = 0
KPD1 121123Z 28007KT M02/M11 A3037 RMK A01 T10241114  RH  050%=      5-min Rain = 0
KPD1 121124Z 28007KT M03/M11 A3037 RMK A01 T10251114  RH  050%=      5-min Rain = 0
KPD1 121125Z 28007KT M02/M11 A3037 RMK A01 T10241113  RH  050%=      5-min Rain = 0
KPD1 121126Z 28007KT M02/M11 A3037 RMK A01 T10241113  RH  051%=      5-min Rain = 0
KPD1 121127Z 28007KT M02/M11 A3037 RMK A01 T10241112  RH  051%=      5-min Rain = 0
KPD1 121128Z 28007KT M02/M11 A3037 RMK A01 T10231112  RH  051%=      5-min Rain = 0
KPD1 121129Z 28007KT M02/M11 A3037 RMK A01 T10231112  RH  051%=      5-min Rain = 0
KPD1 121130Z 28006KT M02/M11 A3037 RMK A01 T10231112  RH  051%=      5-min Rain = 0
KPD1 121131Z 27006KT M02/M11 A3037 RMK A01 T10231112  RH  051%=      5-min Rain = 0
KPD1 121132Z 28006KT M02/M11 A3037 RMK A01 T10241113  RH  051%=      5-min Rain = 0
KPD1 121133Z 28006KT M02/M11 A3037 RMK A01 T10241113  RH  051%=      5-min Rain = 0
KPD1 121134Z 28006KT M02/M11 A3036 RMK A01 T10241113  RH  051%=      5-min Rain = 0
KPD1 121135Z 28006KT M03/M11 A3036 RMK A01 T10251113  RH  051%=      5-min Rain = 0
KPD1 121136Z 28007KT M03/M11 A3036 RMK A01 T10251112  RH  051%=      5-min Rain = 0
KPD1 121137Z 28007KT M03/M11 A3036 RMK A01 T10251112  RH  051%=      5-min Rain = 0
KPD1 121138Z 28007KT M03/M11 A3036 RMK A01 T10251112  RH  051%=      5-min Rain = 0
KPD1 121139Z 27007KT M02/M11 A3036 RMK A01 T10241112  RH  051%=      5-min Rain = 0
KPD1 121140Z 27006KT M02/M11 A3036 RMK A01 T10241112  RH  051%=      5-min Rain = 0
KPD1 121141Z 27006KT M03/M11 A3036 RMK A01 T10251112  RH  051%=      5-min Rain = 0
KPD1 121142Z 27006KT M03/M11 A3036 RMK A01 T10251112  RH  051%=      5-min Rain = 0
KPD1 121143Z 27005KT M03/M11 A3036 RMK A01 T10251112  RH  051%=      5-min Rain = 0
KPD1 121144Z 27005KT M03/M11 A3037 RMK A01 T10251112  RH  051%=      5-min Rain = 0
KPD1 121145Z 27005KT M03/M11 A3037 RMK A01 T10251112  RH  051%=      5-min Rain = 0
KPD1 121146Z 27005KT M03/M11 A3037 RMK A01 T10251112  RH  052%=      5-min Rain = 0
KPD1 121147Z 27005KT M03/M11 A3037 RMK A01 T10251111  RH  052%=      5-min Rain = 0
KPD1 121148Z 27005KT M03/M11 A3037 RMK A01 T10261111  RH  052%=      5-min Rain = 0
KPD1 121149Z 27005KT M03/M11 A3037 RMK A01 T10261111  RH  052%=      5-min Rain = 0
KPD1 121150Z 27004KT M03/M11 A3037 RMK A01 T10251109  RH  053%=      5-min Rain = 0
KPD1 121151Z 27004KT M03/M11 A3037 RMK A01 T10251108  RH  053%=      5-min Rain = 0
KPD1 121152Z 26004KT M03/M11 A3037 RMK A01 T10251108  RH  053%=      5-min Rain = 0
KPD1 121153Z 26004KT M02/M11 A3037 RMK A01 T10241107  RH  053%=      5-min Rain = 0
KPD1 121154Z 26004KT M02/M11 A3037 RMK A01 T10241106  RH  053%=      5-min Rain = 0
KPD1 121155Z 26004KT M02/M10 A3037 RMK A01 T10231104  RH  054%=      5-min Rain = 0
KPD1 121156Z 26004KT M02/M10 A3037 RMK A01 T10231104  RH  054%=      5-min Rain = 0
KPD1 121157Z 26004KT M02/M10 A3037 RMK A01 T10221103  RH  054%=      5-min Rain = 0
KPD1 121158Z 26004KT M02/M10 A3037 RMK A01 T10221103  RH  054%=      5-min Rain = 0
KPD1 121159Z 26003KT M02/M10 A3037 RMK A01 T10211102  RH  054%=      5-min Rain = 0
KPD1 121200Z 26003KT M02/M10 A3037 RMK A01 T10221102  RH  054%=      5-min Rain = 0
KPD1 121201Z 25003KT M02/M10 A3037 RMK A01 T10211102  RH  054%=      5-min Rain = 0
KPD1 121202Z 25003KT M02/M10 A3037 RMK A01 T10211101  RH  054%=      5-min Rain = 0
KPD1 121203Z 25003KT M02/M10 A3037 RMK A01 T10221101  RH  055%=      5-min Rain = 0
KPD1 121204Z 25003KT M02/M10 A3037 RMK A01 T10221101  RH  055%=      5-min Rain = 0
KPD1 121205Z 25003KT M02/M10 A3037 RMK A01 T10221101  RH  055%=      5-min Rain = 0
KPD1 121206Z 25003KT M02/M10 A3037 RMK A01 T10221100  RH  055%=      5-min Rain = 0
KPD1 121207Z 26004KT M02/M10 A3037 RMK A01 T10221100  RH  055%=      5-min Rain = 0
KPD1 121208Z 26004KT M02/M10 A3037 RMK A01 T10221100  RH  055%=      5-min Rain = 0
KPD1 121209Z 26004KT M02/M10 A3037 RMK A01 T10231101  RH  055%=      5-min Rain = 0
KPD1 121210Z 26004KT M02/M10 A3037 RMK A01 T10231101  RH  055%=      5-min Rain = 0
KPD1 121211Z 26003KT M02/M10 A3037 RMK A01 T10241101  RH  055%=      5-min Rain = 0
KPD1 121212Z 26003KT M02/M10 A3037 RMK A01 T10241100  RH  056%=      5-min Rain = 0
KPD1 121213Z 26003KT M02/M10 A3037 RMK A01 T10231100  RH  056%=      5-min Rain = 0
KPD1 121214Z 26003KT M02/M10 A3037 RMK A01 T10231099  RH  056%=      5-min Rain = 0
KPD1 121215Z 26003KT M02/M10 A3037 RMK A01 T10231099  RH  056%=      5-min Rain = 0
KPD1 121216Z 26003KT M02/M10 A3037 RMK A01 T10231099  RH  056%=      5-min Rain = 0
KPD1 121217Z 26003KT M02/M10 A3037 RMK A01 T10231098  RH  056%=      5-min Rain = 0
KPD1 121218Z 26003KT M02/M10 A3037 RMK A01 T10231098  RH  056%=      5-min Rain = 0
KPD1 121219Z 26003KT M02/M10 A3037 RMK A01 T10231098  RH  056%=      5-min Rain = 0
KPD1 121220Z 27003KT M02/M10 A3037 RMK A01 T10231098  RH  056%=      5-min Rain = 0
KPD1 121221Z 27003KT M02/M10 A3037 RMK A01 T10231097  RH  057%=      5-min Rain = 0
KPD1 121222Z 27004KT M02/M10 A3037 RMK A01 T10231098  RH  057%=      5-min Rain = 0
KPD1 121223Z 27004KT M02/M10 A3037 RMK A01 T10241098  RH  057%=      5-min Rain = 0
KPD1 121224Z 27004KT M02/M10 A3037 RMK A01 T10241098  RH  057%=      5-min Rain = 0
KPD1 121225Z 27004KT M03/M10 A3037 RMK A01 T10251098  RH  057%=      5-min Rain = 0
KPD1 121226Z 27004KT M03/M10 A3038 RMK A01 T10251098  RH  057%=      5-min Rain = 0
KPD1 121227Z 27005KT M03/M10 A3038 RMK A01 T10251098  RH  057%=      5-min Rain = 0
KPD1 121228Z 27005KT M03/M10 A3038 RMK A01 T10251099  RH  057%=      5-min Rain = 0
KPD1 121229Z 27005KT M03/M10 A3038 RMK A01 T10261100  RH  057%=      5-min Rain = 0
KPD1 121230Z 27006KT M03/M10 A3038 RMK A01 T10261100  RH  057%=      5-min Rain = 0
KPD1 121231Z 27006KT M03/M10 A3038 RMK A01 T10261101  RH  056%=      5-min Rain = 0
KPD1 121232Z 27006KT M03/M10 A3038 RMK A01 T10261101  RH  056%=      5-min Rain = 0
KPD1 121233Z 27006KT M03/M10 A3038 RMK A01 T10271102  RH  056%=      5-min Rain = 0
KPD1 121234Z 27006KT M03/M10 A3038 RMK A01 T10271103  RH  056%=      5-min Rain = 0
KPD1 121235Z 27006KT M03/M10 A3038 RMK A01 T10281103  RH  056%=      5-min Rain = 0
KPD1 121236Z 27006KT M03/M10 A3038 RMK A01 T10281103  RH  056%=      5-min Rain = 0
KPD1 121237Z 27006KT M03/M10 A3038 RMK A01 T10291103  RH  057%=      5-min Rain = 0
KPD1 121238Z 27006KT M03/M10 A3038 RMK A01 T10291103  RH  057%=      5-min Rain = 0
KPD1 121239Z 28007KT M03/M10 A3038 RMK A01 T10291103  RH  057%=      5-min Rain = 0
KPD1 121240Z 28007KT M03/M10 A3038 RMK A01 T10291103  RH  057%=      5-min Rain = 0
KPD1 121241Z 28006KT M03/M10 A3038 RMK A01 T10301104  RH  057%=      5-min Rain = 0
KPD1 121242Z 27005KT M03/M10 A3038 RMK A01 T10301104  RH  057%=      5-min Rain = 0
KPD1 121243Z 28005KT M03/M10 A3037 RMK A01 T10301104  RH  057%=      5-min Rain = 0
KPD1 121244Z 28005KT M03/M10 A3037 RMK A01 T10291103  RH  057%=      5-min Rain = 0
KPD1 121245Z 28006KT M03/M10 A3037 RMK A01 T10291103  RH  057%=      5-min Rain = 0
KPD1 121246Z 28006KT M03/M10 A3037 RMK A01 T10281103  RH  057%=      5-min Rain = 0
KPD1 121247Z 28006KT M03/M10 A3038 RMK A01 T10291103  RH  056%=      5-min Rain = 0
KPD1 121248Z 28005KT M03/M10 A3038 RMK A01 T10281103  RH  056%=      5-min Rain = 0
KPD1 121249Z 28005KT M03/M10 A3038 RMK A01 T10271102  RH  056%=      5-min Rain = 0
KPD1 121250Z 28005KT M03/M10 A3038 RMK A01 T10261102  RH  056%=      5-min Rain = 0
KPD1 121251Z 28005KT M03/M10 A3038 RMK A01 T10261102  RH  056%=      5-min Rain = 0
KPD1 121252Z 28006KT M03/M10 A3038 RMK A01 T10251103  RH  055%=      5-min Rain = 0
KPD1 121253Z 28007KT M03/M10 A3038 RMK A01 T10251104  RH  055%=      5-min Rain = 0
KPD1 121254Z 28007KT M02/M11 A3038 RMK A01 T10241105  RH  054%=      5-min Rain = 0
KPD1 121255Z 28007KT M02/M11 A3038 RMK A01 T10241107  RH  053%=      5-min Rain = 0
KPD1 121256Z 28007KT M02/M11 A3038 RMK A01 T10241110  RH  052%=      5-min Rain = 0
KPD1 121257Z 28007KT M02/M11 A3038 RMK A01 T10241112  RH  051%=      5-min Rain = 0
KPD1 121258Z 28008KT M03/M12 A3038 RMK A01 T10261116  RH  050%=      5-min Rain = 0
KPD1 121259Z 28008KT M03/M12 A3038 RMK A01 T10281119  RH  050%=      5-min Rain = 0
KPD1 121300Z 29008KT M03/M12 A3038 RMK A01 T10291120  RH  050%=      5-min Rain = 0
KPD1 121301Z 29007KT M03/M12 A3038 RMK A01 T10301121  RH  050%=      5-min Rain = 0
KPD1 121302Z 29007KT M03/M12 A3038 RMK A01 T10311121  RH  050%=      5-min Rain = 0
KPD1 121303Z 29007KT M03/M12 A3038 RMK A01 T10311121  RH  050%=      5-min Rain = 0
KPD1 121304Z 29006KT M03/M12 A3038 RMK A01 T10311121  RH  050%=      5-min Rain = 0
KPD1 121305Z 29007KT M03/M12 A3038 RMK A01 T10311121  RH  050%=      5-min Rain = 0
KPD1 121306Z 29007KT M03/M12 A3038 RMK A01 T10311121  RH  050%=      5-min Rain = 0
KPD1 121307Z 29007KT M03/M12 A3038 RMK A01 T10311121  RH  050%=      5-min Rain = 0
KPD1 121308Z 29007KT M03/M12 A3038 RMK A01 T10311121  RH  050%=      5-min Rain = 0
KPD1 121309Z 29007KT M03/M12 A3038 RMK A01 T10311121  RH  050%=      5-min Rain = 0
KPD1 121310Z 29007KT M03/M12 A3038 RMK A01 T10311121  RH  050%=      5-min Rain = 0
KPD1 121311Z 28008KT M03/M12 A3038 RMK A01 T10321123  RH  049%=      5-min Rain = 0
KPD1 121312Z 28008KT M03/M12 A3038 RMK A01 T10321123  RH  049%=      5-min Rain = 0
KPD1 121313Z 28008KT M03/M12 A3038 RMK A01 T10321124  RH  049%=      5-min Rain = 0
KPD1 121314Z 28008KT M03/M12 A3038 RMK A01 T10331124  RH  049%=      5-min Rain = 0
KPD1 121315Z 28008KT M03/M13 A3038 RMK A01 T10331125  RH  049%=      5-min Rain = 0
KPD1 121316Z 28008KT M03/M12 A3038 RMK A01 T10341124  RH  049%=      5-min Rain = 0
KPD1 121317Z 29008KT M03/M12 A3038 RMK A01 T10331124  RH  050%=      5-min Rain = 0
KPD1 121318Z 29008KT M03/M12 A3038 RMK A01 T10321123  RH  049%=      5-min Rain = 0
KPD1 121319Z 29008KT M03/M12 A3038 RMK A01 T10321123  RH  049%=      5-min Rain = 0
KPD1 121320Z 29008KT M03/M12 A3038 RMK A01 T10311123  RH  049%=      5-min Rain = 0
KPD1 121321Z 29008KT M03/M12 A3038 RMK A01 T10301122  RH  049%=      5-min Rain = 0
KPD1 121322Z 29008KT M03/M12 A3038 RMK A01 T10301122  RH  049%=      5-min Rain = 0
KPD1 121323Z 29008KT M03/M12 A3038 RMK A01 T10291121  RH  049%=      5-min Rain = 0
KPD1 121324Z 29007KT M03/M12 A3038 RMK A01 T10271119  RH  049%=      5-min Rain = 0
KPD1 121325Z 29007KT M03/M12 A3038 RMK A01 T10251119  RH  049%=      5-min Rain = 0
KPD1 121326Z 29007KT M02/M12 A3038 RMK A01 T10241117  RH  049%=      5-min Rain = 0
KPD1 121327Z 29007KT M02/M12 A3038 RMK A01 T10241117  RH  049%=      5-min Rain = 0
KPD1 121328Z 29008KT M02/M12 A3038 RMK A01 T10231117  RH  048%=      5-min Rain = 0
KPD1 121329Z 29007KT M02/M12 A3038 RMK A01 T10211116  RH  048%=      5-min Rain = 0
KPD1 121330Z 29008KT M02/M12 A3038 RMK A01 T10201116  RH  048%=      5-min Rain = 0
KPD1 121331Z 29008KT M02/M12 A3038 RMK A01 T10201117  RH  047%=      5-min Rain = 0
KPD1 121332Z 29008KT M02/M12 A3038 RMK A01 T10191117  RH  047%=      5-min Rain = 0
KPD1 121333Z 29007KT M02/M12 A3038 RMK A01 T10181117  RH  047%=      5-min Rain = 0
KPD1 121334Z 29008KT M02/M12 A3038 RMK A01 T10181117  RH  047%=      5-min Rain = 0
KPD1 121335Z 29008KT M02/M12 A3038 RMK A01 T10171117  RH  046%=      5-min Rain = 0
KPD1 121336Z 29008KT M02/M12 A3038 RMK A01 T10171117  RH  046%=      5-min Rain = 0
KPD1 121337Z 28007KT M02/M12 A3038 RMK A01 T10171117  RH  046%=      5-min Rain = 0
KPD1 121338Z 29007KT M02/M12 A3038 RMK A01 T10171117  RH  046%=      5-min Rain = 0
KPD1 121339Z 29007KT M02/M12 A3038 RMK A01 T10161117  RH  046%=      5-min Rain = 0
KPD1 121340Z 29008KT M02/M12 A3038 RMK A01 T10161116  RH  046%=      5-min Rain = 0
KPD1 121341Z 29007KT M02/M12 A3038 RMK A01 T10151115  RH  047%=      5-min Rain = 0
KPD1 121342Z 28007KT M01/M11 A3038 RMK A01 T10141113  RH  047%=      5-min Rain = 0
KPD1 121343Z 29006KT M01/M11 A3038 RMK A01 T10131111  RH  047%=      5-min Rain = 0
KPD1 121344Z 29006KT M01/M11 A3038 RMK A01 T10111110  RH  047%=      5-min Rain = 0
KPD1 121345Z 29006KT M01/M11 A3038 RMK A01 T10101108  RH  047%=      5-min Rain = 0
KPD1 121346Z 29005KT M01/M11 A3038 RMK A01 T10091107  RH  047%=      5-min Rain = 0
KPD1 121347Z 29005KT M01/M11 A3038 RMK A01 T10071105  RH  047%=      5-min Rain = 0
KPD1 121348Z 29005KT M01/M10 A3038 RMK A01 T10051104  RH  047%=      5-min Rain = 0
KPD1 121349Z 29005KT M00/M10 A3038 RMK A01 T10041103  RH  047%=      5-min Rain = 0
KPD1 121350Z 29004KT M00/M10 A3038 RMK A01 T10021102  RH  047%=      5-min Rain = 0
KPD1 121351Z 29004KT M00/M10 A3038 RMK A01 T10011101  RH  047%=      5-min Rain = 0
KPD1 121352Z 30003KT 00/M10 A3038 RMK A01 T00011100  RH  047%=      5-min Rain = 0
KPD1 121353Z 32002KT 00/M10 A3038 RMK A01 T00021100  RH  046%=      5-min Rain = 0
KPD1 121354Z 33001KT 00/M10 A3038 RMK A01 T00031100  RH  046%=      5-min Rain = 0
KPD1 121355Z 00000KT 01/M10 A3038 RMK A01 T00051102  RH  045%=      5-min Rain = 0
KPD1 121356Z 00000KT 01/M11 A3038 RMK A01 T00051105  RH  044%=      5-min Rain = 0
KPD1 121357Z 00000KT 01/M10 A3038 RMK A01 T00061104  RH  043%=      5-min Rain = 0
KPD1 121358Z 00000KT 01/M10 A3038 RMK A01 T00071104  RH  043%=      5-min Rain = 0
KPD1 121359Z 00000KT 01/M10 A3038 RMK A01 T00081103  RH  043%=      5-min Rain = 0
KPD1 121400Z 00000KT 01/M10 A3038 RMK A01 T00081103  RH  043%=      5-min Rain = 0
KPD1 121401Z 31000KT 01/M10 A3038 RMK A01 T00081103  RH  043%=      5-min Rain = 0
KPD1 121402Z 00000KT 01/M10 A3038 RMK A01 T00081102  RH  044%=      5-min Rain = 0
KPD1 121403Z 00000KT 01/M10 A3038 RMK A01 T00091100  RH  044%=      5-min Rain = 0
KPD1 121404Z 31000KT 01/M10 A3038 RMK A01 T00091099  RH  044%=      5-min Rain = 0
KPD1 121405Z 31000KT 01/M10 A3038 RMK A01 T00111097  RH  044%=      5-min Rain = 0
KPD1 121406Z 00000KT 01/M10 A3038 RMK A01 T00121096  RH  044%=      5-min Rain = 0
KPD1 121407Z 00000KT 01/M09 A3038 RMK A01 T00141094  RH  044%=      5-min Rain = 0
KPD1 121408Z 00000KT 02/M09 A3038 RMK A01 T00161094  RH  044%=      5-min Rain = 0
KPD1 121409Z 00000KT 02/M09 A3038 RMK A01 T00171094  RH  044%=      5-min Rain = 0
KPD1 121410Z 00000KT 02/M09 A3038 RMK A01 T00171094  RH  043%=      5-min Rain = 0
KPD1 121411Z 00000KT 02/M09 A3038 RMK A01 T00181094  RH  043%=      5-min Rain = 0
KPD1 121412Z 31001KT 02/M09 A3038 RMK A01 T00181093  RH  043%=      5-min Rain = 0
KPD1 121413Z 31001KT 02/M09 A3038 RMK A01 T00191092  RH  044%=      5-min Rain = 0
KPD1 121414Z 31001KT 02/M09 A3038 RMK A01 T00201091  RH  043%=      5-min Rain = 0
KPD1 121415Z 30002KT 02/M09 A3038 RMK A01 T00201091  RH  043%=      5-min Rain = 0
KPD1 121416Z 28001KT 02/M09 A3038 RMK A01 T00191091  RH  044%=      5-min Rain = 0
KPD1 121417Z 28001KT 02/M09 A3038 RMK A01 T00191091  RH  044%=      5-min Rain = 0
KPD1 121418Z 28000KT 02/M09 A3038 RMK A01 T00201090  RH  044%=      5-min Rain = 0
KPD1 121419Z 28000KT 02/M09 A3038 RMK A01 T00201090  RH  044%=      5-min Rain = 0
KPD1 121420Z 28001KT 02/M09 A3038 RMK A01 T00201090  RH  044%=      5-min Rain = 0
KPD1 121421Z 28001KT 02/M09 A3039 RMK A01 T00211089  RH  044%=      5-min Rain = 0
KPD1 121422Z 28001KT 02/M09 A3039 RMK A01 T00221089  RH  044%=      5-min Rain = 0
KPD1 121423Z 29001KT 02/M09 A3039 RMK A01 T00221089  RH  044%=      5-min Rain = 0
KPD1 121424Z 28000KT 02/M09 A3038 RMK A01 T00221089  RH  044%=      5-min Rain = 0
KPD1 121425Z 28000KT 02/M09 A3038 RMK A01 T00221089  RH  044%=      5-min Rain = 0
KPD1 121426Z 27001KT 02/M09 A3038 RMK A01 T00231087  RH  044%=      5-min Rain = 0
KPD1 121427Z 27001KT 02/M09 A3039 RMK A01 T00241087  RH  044%=      5-min Rain = 0
KPD1 121428Z 27001KT 02/M09 A3039 RMK A01 T00241086  RH  044%=      5-min Rain = 0
KPD1 121429Z 27001KT 03/M09 A3039 RMK A01 T00261085  RH  044%=      5-min Rain = 0
KPD1 121430Z 27000KT 03/M08 A3039 RMK A01 T00271084  RH  044%=      5-min Rain = 0
KPD1 121431Z 27001KT 03/M09 A3039 RMK A01 T00281085  RH  043%=      5-min Rain = 0
KPD1 121432Z 25002KT 03/M08 A3039 RMK A01 T00301082  RH  044%=      5-min Rain = 0
KPD1 121433Z 25002KT 03/M08 A3039 RMK A01 T00301082  RH  044%=      5-min Rain = 0
KPD1 121434Z 25002KT 03/M08 A3039 RMK A01 T00311083  RH  043%=      5-min Rain = 0
KPD1 121435Z 24001KT 03/M08 A3039 RMK A01 T00311083  RH  043%=      5-min Rain = 0
KPD1 121436Z 24001KT 03/M08 A3039 RMK A01 T00321081  RH  043%=      5-min Rain = 0
KPD1 121437Z 25001KT 04/M08 A3039 RMK A01 T00351078  RH  043%=      5-min Rain = 0
KPD1 121438Z 24000KT 04/M08 A3039 RMK A01 T00361078  RH  043%=      5-min Rain = 0
KPD1 121439Z 24001KT 04/M08 A3039 RMK A01 T00371077  RH  043%=      5-min Rain = 0
KPD1 121440Z 24001KT 04/M08 A3039 RMK A01 T00411075  RH  043%=      5-min Rain = 0
KPD1 121441Z 24001KT 04/M08 A3039 RMK A01 T00431076  RH  042%=      5-min Rain = 0
KPD1 121442Z 19002KT 04/M08 A3039 RMK A01 T00441076  RH  041%=      5-min Rain = 0
KPD1 121443Z 20002KT 05/M07 A3039 RMK A01 T00461073  RH  042%=      5-min Rain = 0
KPD1 121444Z 16002KT 05/M08 A3039 RMK A01 T00471075  RH  041%=      5-min Rain = 0
KPD1 121445Z 17001KT 05/M08 A3039 RMK A01 T00481081  RH  039%=      5-min Rain = 0
KPD1 121446Z 17002KT 05/M08 A3039 RMK A01 T00491081  RH  038%=      5-min Rain = 0
KPD1 121447Z 18003KT 05/M08 A3039 RMK A01 T00501079  RH  039%=      5-min Rain = 0
KPD1 121448Z 19002KT 05/M08 A3039 RMK A01 T00511081  RH  038%=      5-min Rain = 0
KPD1 121449Z 19002KT 05/M08 A3039 RMK A01 T00511078  RH  039%=      5-min Rain = 0
KPD1 121450Z 17003KT 05/M08 A3039 RMK A01 T00501077  RH  039%=      5-min Rain = 0
KPD1 121451Z 19002KT 05/M08 A3039 RMK A01 T00501077  RH  039%=      5-min Rain = 0
KPD1 121452Z 18002KT 05/M08 A3039 RMK A01 T00501076  RH  040%=      5-min Rain = 0
KPD1 121453Z 17002KT 05/M07 A3039 RMK A01 T00521073  RH  040%=      5-min Rain = 0
KPD1 121454Z 16003KT 05/M07 A3039 RMK A01 T00531074  RH  039%=      5-min Rain = 0
KPD1 121455Z 16003KT 05/M08 A3039 RMK A01 T00541077  RH  038%=      5-min Rain = 0
KPD1 121456Z 16002KT 05/M08 A3039 RMK A01 T00531079  RH  038%=      5-min Rain = 0
KPD1 121457Z 15003KT 05/M08 A3039 RMK A01 T00531078  RH  038%=      5-min Rain = 0
KPD1 121458Z 15002KT 05/M08 A3039 RMK A01 T00541078  RH  038%=      5-min Rain = 0
KPD1 121459Z 15003KT 05/M08 A3039 RMK A01 T00541075  RH  039%=      5-min Rain = 0
KPD1 121500Z 16002KT 06/M07 A3039 RMK A01 T00551074  RH  039%=      5-min Rain = 0
KPD1 121501Z 17002KT 06/M07 A3039 RMK A01 T00561072  RH  039%=      5-min Rain = 0
KPD1 121502Z 17002KT 06/M07 A3039 RMK A01 T00561071  RH  039%=      5-min Rain = 0
KPD1 121503Z 16003KT 06/M07 A3039 RMK A01 T00561072  RH  039%=      5-min Rain = 0
KPD1 121504Z 17003KT 06/M07 A3039 RMK A01 T00571070  RH  040%=      5-min Rain = 0
KPD1 121505Z 18003KT 06/M07 A3039 RMK A01 T00571069  RH  040%=      5-min Rain = 0
KPD1 121506Z 18004KT 06/M07 A304 RMK A01 T00561069  RH  040%=      5-min Rain = 0
KPD1 121507Z 18004KT 06/M07 A304 RMK A01 T00561069  RH  040%=      5-min Rain = 0
KPD1 121508Z 18004KT 06/M07 A304 RMK A01 T00561070  RH  040%=      5-min Rain = 0
KPD1 121509Z 19003KT 06/M07 A304 RMK A01 T00561071  RH  040%=      5-min Rain = 0
KPD1 121510Z 20003KT 06/M07 A304 RMK A01 T00551069  RH  040%=      5-min Rain = 0
KPD1 121511Z 19003KT 06/M07 A304 RMK A01 T00551067  RH  041%=      5-min Rain = 0
KPD1 121512Z 20002KT 06/M07 A304 RMK A01 T00561067  RH  041%=      5-min Rain = 0
KPD1 121513Z 20002KT 06/M07 A304 RMK A01 T00581066  RH  040%=      5-min Rain = 0
KPD1 121514Z 19004KT 06/M07 A304 RMK A01 T00601067  RH  039%=      5-min Rain = 0
KPD1 121515Z 22003KT 06/M07 A304 RMK A01 T00611067  RH  039%=      5-min Rain = 0
KPD1 121516Z 16003KT 06/M07 A304 RMK A01 T00601068  RH  039%=      5-min Rain = 0
KPD1 121517Z 17003KT 06/M07 A304 RMK A01 T00601068  RH  039%=      5-min Rain = 0
KPD1 121518Z 18004KT 06/M07 A304 RMK A01 T00621066  RH  040%=      5-min Rain = 0
KPD1 121519Z 17003KT 06/M07 A304 RMK A01 T00621066  RH  039%=      5-min Rain = 0
KPD1 121520Z 17002KT 06/M07 A304 RMK A01 T00611068  RH  039%=      5-min Rain = 0
KPD1 121521Z 16002KT 06/M07 A304 RMK A01 T00621068  RH  039%=      5-min Rain = 0
KPD1 121522Z 18002KT 06/M07 A304 RMK A01 T00621069  RH  039%=      5-min Rain = 0
KPD1 121523Z 16003KT 06/M07 A304 RMK A01 T00611069  RH  039%=      5-min Rain = 0
KPD1 121524Z 16002KT 06/M07 A304 RMK A01 T00611067  RH  039%=      5-min Rain = 0
KPD1 121525Z 18002KT 06/M07 A304 RMK A01 T00631066  RH  039%=      5-min Rain = 0
KPD1 121526Z 20002KT 07/M07 A304 RMK A01 T00651067  RH  038%=      5-min Rain = 0
KPD1 121527Z 18001KT 07/M07 A304 RMK A01 T00661066  RH  038%=      5-min Rain = 0
KPD1 121528Z 17001KT 07/M07 A304 RMK A01 T00671067  RH  038%=      5-min Rain = 0
KPD1 121529Z 14001KT 07/M07 A304 RMK A01 T00681067  RH  038%=      5-min Rain = 0
KPD1 121530Z 16001KT 07/M07 A304 RMK A01 T00681066  RH  038%=      5-min Rain = 0
KPD1 121531Z 17003KT 07/M07 A304 RMK A01 T00701065  RH  038%=      5-min Rain = 0
KPD1 121532Z 18003KT 07/M06 A304 RMK A01 T00701064  RH  038%=      5-min Rain = 0
KPD1 121533Z 19002KT 07/M06 A304 RMK A01 T00681064  RH  038%=      5-min Rain = 0
KPD1 121534Z 23002KT 07/M07 A304 RMK A01 T00681065  RH  038%=      5-min Rain = 0
KPD1 121535Z 18004KT 07/M07 A304 RMK A01 T00661067  RH  038%=      5-min Rain = 0
KPD1 121536Z 18003KT 07/M06 A304 RMK A01 T00661064  RH  039%=      5-min Rain = 0
KPD1 121537Z 18004KT 07/M06 A304 RMK A01 T00671063  RH  039%=      5-min Rain = 0
KPD1 121538Z 20003KT 07/M06 A304 RMK A01 T00681064  RH  038%=      5-min Rain = 0
KPD1 121539Z 21002KT 07/M06 A304 RMK A01 T00681064  RH  038%=      5-min Rain = 0
KPD1 121540Z 19004KT 07/M06 A304 RMK A01 T00681063  RH  039%=      5-min Rain = 0
KPD1 121541Z 17004KT 07/M06 A304 RMK A01 T00691063  RH  038%=      5-min Rain = 0
KPD1 121542Z 17003KT 07/M06 A304 RMK A01 T00711062  RH  038%=      5-min Rain = 0
KPD1 121543Z 19005KT 07/M06 A304 RMK A01 T00721061  RH  038%=      5-min Rain = 0
KPD1 121544Z 19004KT 07/M06 A304 RMK A01 T00731062  RH  038%=      5-min Rain = 0
KPD1 121545Z 18002KT 07/M06 A304 RMK A01 T00731062  RH  038%=      5-min Rain = 0
KPD1 121546Z 16003KT 07/M06 A304 RMK A01 T00731063  RH  037%=      5-min Rain = 0
KPD1 121547Z 16005KT 07/M06 A304 RMK A01 T00741062  RH  037%=      5-min Rain = 0
KPD1 121548Z 17002KT 08/M06 A304 RMK A01 T00751063  RH  037%=      5-min Rain = 0
KPD1 121549Z 19002KT 07/M06 A304 RMK A01 T00741063  RH  037%=      5-min Rain = 0
KPD1 121550Z 16004KT 08/M06 A304 RMK A01 T00751063  RH  037%=      5-min Rain = 0
KPD1 121551Z 15003KT 08/M06 A304 RMK A01 T00781060  RH  037%=      5-min Rain = 0
KPD1 121552Z 16004KT 08/M06 A304 RMK A01 T00821058  RH  037%=      5-min Rain = 0
KPD1 121553Z 19004KT 09/M06 A304 RMK A01 T00851057  RH  036%=      5-min Rain = 0
KPD1 121554Z 18004KT 09/M06 A304 RMK A01 T00861058  RH  035%=      5-min Rain = 0
KPD1 121555Z 18004KT 08/M06 A304 RMK A01 T00841061  RH  035%=      5-min Rain = 0
KPD1 121556Z 13002KT 08/M06 A304 RMK A01 T00821061  RH  036%=      5-min Rain = 0
KPD1 121557Z 15002KT 08/M06 A304 RMK A01 T00821061  RH  036%=      5-min Rain = 0
KPD1 121558Z 17003KT 08/M06 A304 RMK A01 T00821061  RH  036%=      5-min Rain = 0
KPD1 121559Z 19003KT 08/M06 A304 RMK A01 T00831060  RH  036%=      5-min Rain = 0
KPD1 121600Z 15003KT 08/M06 A304 RMK A01 T00841061  RH  035%=      5-min Rain = 0
KPD1 121601Z 14003KT 08/M06 A304 RMK A01 T00831061  RH  035%=      5-min Rain = 0
KPD1 121602Z 14002KT 08/M06 A304 RMK A01 T00841061  RH  035%=      5-min Rain = 0
KPD1 121603Z 13003KT 08/M06 A304 RMK A01 T00841061  RH  035%=      5-min Rain = 0
KPD1 121604Z 17003KT 09/M06 A304 RMK A01 T00851060  RH  035%=      5-min Rain = 0
KPD1 121605Z 17003KT 09/M06 A304 RMK A01 T00871058  RH  035%=      5-min Rain = 0
KPD1 121606Z 15003KT 09/M06 A304 RMK A01 T00901057  RH  035%=      5-min Rain = 0
KPD1 121607Z 16003KT 09/M06 A304 RMK A01 T00911057  RH  035%=      5-min Rain = 0
KPD1 121608Z 16002KT 09/M06 A304 RMK A01 T00911057  RH  035%=      5-min Rain = 0
KPD1 121609Z 16003KT 09/M06 A3039 RMK A01 T00921057  RH  035%=      5-min Rain = 0
KPD1 121610Z 15004KT 09/M06 A3039 RMK A01 T00931056  RH  034%=      5-min Rain = 0
KPD1 121611Z 14004KT 10/M05 A3039 RMK A01 T00971054  RH  034%=      5-min Rain = 0
KPD1 121612Z 16005KT 10/M06 A3039 RMK A01 T00991056  RH  033%=      5-min Rain = 0
KPD1 121613Z 18004KT 10/M06 A3039 RMK A01 T00981057  RH  033%=      5-min Rain = 0
KPD1 121614Z 19004KT 10/M06 A3039 RMK A01 T00971056  RH  033%=      5-min Rain = 0
KPD1 121615Z 14004KT 10/M06 A3039 RMK A01 T00971057  RH  033%=      5-min Rain = 0
KPD1 121616Z 13006KT 10/M06 A3039 RMK A01 T00961056  RH  034%=      5-min Rain = 0
KPD1 121617Z 14003KT 10/M06 A3039 RMK A01 T00961057  RH  033%=      5-min Rain = 0
KPD1 121618Z 13004KT 09/M06 A3039 RMK A01 T00941058  RH  034%=      5-min Rain = 0
KPD1 121619Z 15004KT 09/M06 A3039 RMK A01 T00941057  RH  034%=      5-min Rain = 0
KPD1 121620Z 15006KT 09/M06 A3039 RMK A01 T00941056  RH  034%=      5-min Rain = 0
KPD1 121621Z 16006KT 09/M06 A3039 RMK A01 T00941056  RH  034%=      5-min Rain = 0
KPD1 121622Z 19005KT 09/M06 A3039 RMK A01 T00941056  RH  034%=      5-min Rain = 0
KPD1 121623Z 19004KT 10/M06 A3039 RMK A01 T00961055  RH  034%=      5-min Rain = 0
KPD1 121624Z 19003KT 10/M06 A3039 RMK A01 T00961057  RH  034%=      5-min Rain = 0
KPD1 121625Z 16003KT 10/M06 A3039 RMK A01 T00961055  RH  034%=      5-min Rain = 0
KPD1 121626Z 14003KT 10/M05 A3039 RMK A01 T00981053  RH  034%=      5-min Rain = 0
KPD1 121627Z 15004KT 10/M05 A3039 RMK A01 T01001054  RH  033%=      5-min Rain = 0
KPD1 121628Z 16007KT 10/M06 A3039 RMK A01 T00971056  RH  033%=      5-min Rain = 0
KPD1 121629Z 16004KT 10/M06 A3039 RMK A01 T00961056  RH  034%=      5-min Rain = 0
KPD1 121630Z 19004KT 10/M06 A3039 RMK A01 T00971055  RH  034%=      5-min Rain = 0
KPD1 121631Z 16003KT 10/M06 A3039 RMK A01 T00961057  RH  034%=      5-min Rain = 0
KPD1 121632Z 16004KT 10/M05 A3039 RMK A01 T00971054  RH  034%=      5-min Rain = 0
KPD1 121633Z 19005KT 10/M05 A3039 RMK A01 T01021052  RH  033%=      5-min Rain = 0
KPD1 121634Z 19003KT 11/M05 A3039 RMK A01 T01051054  RH  032%=      5-min Rain = 0
KPD1 121635Z 14001KT 10/M06 A3039 RMK A01 T01041057  RH  032%=      5-min Rain = 0
KPD1 121636Z 20003KT 10/M06 A3039 RMK A01 T01021057  RH  032%=      5-min Rain = 0
KPD1 121637Z 18003KT 10/M06 A3039 RMK A01 T01021057  RH  032%=      5-min Rain = 0
KPD1 121638Z 17004KT 10/M06 A3038 RMK A01 T01011058  RH  032%=      5-min Rain = 0
KPD1 121639Z 14004KT 10/M06 A3038 RMK A01 T01011057  RH  032%=      5-min Rain = 0
KPD1 121640Z 11002KT 10/M06 A3038 RMK A01 T01011057  RH  032%=      5-min Rain = 0
KPD1 121641Z 17002KT 10/M06 A3038 RMK A01 T01041055  RH  032%=      5-min Rain = 0
KPD1 121642Z 20005KT 11/M06 A3038 RMK A01 T01071055  RH  032%=      5-min Rain = 0
KPD1 121643Z 21006KT 11/M06 A3038 RMK A01 T01081055  RH  031%=      5-min Rain = 0
KPD1 121644Z 20001KT 11/M06 A3038 RMK A01 T01051059  RH  031%=      5-min Rain = 0
KPD1 121645Z 16004KT 10/M06 A3038 RMK A01 T01011059  RH  032%=      5-min Rain = 0
KPD1 121646Z 16005KT 10/M06 A3038 RMK A01 T01021057  RH  032%=      5-min Rain = 0
KPD1 121647Z 14005KT 10/M06 A3038 RMK A01 T01041055  RH  032%=      5-min Rain = 0
KPD1 121648Z 15007KT 11/M05 A3038 RMK A01 T01091053  RH  032%=      5-min Rain = 0
KPD1 121649Z 14005KT 11/M05 A3038 RMK A01 T01101054  RH  031%=      5-min Rain = 0
KPD1 121650Z 13005KT 11/M05 A3038 RMK A01 T01111054  RH  031%=      5-min Rain = 0
KPD1 121651Z 14003KT 11/M06 A3038 RMK A01 T01091057  RH  031%=      5-min Rain = 0
KPD1 121652Z 15006KT 11/M06 A3038 RMK A01 T01081056  RH  031%=      5-min Rain = 0
KPD1 121653Z 15006KT 11/M06 A3038 RMK A01 T01081057  RH  031%=      5-min Rain = 0
KPD1 121654Z 15005KT 11/M06 A3038 RMK A01 T01081058  RH  031%=      5-min Rain = 0
KPD1 121655Z 13002KT 11/M06 A3038 RMK A01 T01071059  RH  031%=      5-min Rain = 0
KPD1 121656Z 17003KT 11/M06 A3038 RMK A01 T01071058  RH  031%=      5-min Rain = 0
KPD1 121657Z 14003KT 11/M06 A3038 RMK A01 T01091057  RH  031%=      5-min Rain = 0
KPD1 121658Z 13004KT 11/M06 A3038 RMK A01 T01101058  RH  030%=      5-min Rain = 0
KPD1 121659Z 13005KT 11/M06 A3038 RMK A01 T01111058  RH  030%=      5-min Rain = 0
KPD1 121700Z 16006KT 11/M06 A3038 RMK A01 T01101057  RH  030%=      5-min Rain = 0
KPD1 121701Z 17004KT 11/M06 A3038 RMK A01 T01101057  RH  031%=      5-min Rain = 0
KPD1 121702Z 16003KT 11/M06 A3038 RMK A01 T01091057  RH  031%=      5-min Rain = 0
KPD1 121703Z 18002G8KT 11/M06 A3037 RMK A01 T01071057  RH  031%=      5-min Rain = 0
KPD1 121704Z 19006KT 11/M06 A3037 RMK A01 T01071056  RH  031%=      5-min Rain = 0
KPD1 121705Z 17005KT 11/M06 A3038 RMK A01 T01101056  RH  031%=      5-min Rain = 0
KPD1 121706Z 16004KT 11/M06 A3037 RMK A01 T01131055  RH  030%=      5-min Rain = 0
KPD1 121707Z 14006KT 12/M05 A3037 RMK A01 T01151054  RH  030%=      5-min Rain = 0
KPD1 121708Z 12007KT 12/M06 A3037 RMK A01 T01151055  RH  030%=      5-min Rain = 0
KPD1 121709Z 11006KT 11/M06 A3037 RMK A01 T01131056  RH  030%=      5-min Rain = 0
KPD1 121710Z 12005KT 11/M06 A3037 RMK A01 T01121057  RH  030%=      5-min Rain = 0
KPD1 121711Z 11005KT 11/M06 A3037 RMK A01 T01121056  RH  030%=      5-min Rain = 0
KPD1 121712Z 13005KT 11/M06 A3037 RMK A01 T01121057  RH  030%=      5-min Rain = 0
KPD1 121713Z 12006KT 11/M06 A3037 RMK A01 T01121056  RH  030%=      5-min Rain = 0
KPD1 121714Z 12005KT 11/M06 A3037 RMK A01 T01101057  RH  030%=      5-min Rain = 0
KPD1 121715Z 14006KT 11/M06 A3037 RMK A01 T01101056  RH  031%=      5-min Rain = 0
KPD1 121716Z 16008KT 11/M06 A3037 RMK A01 T01121056  RH  030%=      5-min Rain = 0
KPD1 121717Z 14008KT 11/M06 A3037 RMK A01 T01141056  RH  030%=      5-min Rain = 0
KPD1 121718Z 17007KT 11/M06 A3037 RMK A01 T01141057  RH  030%=      5-min Rain = 0
KPD1 121719Z 18005KT 12/M06 A3037 RMK A01 T01151058  RH  029%=      5-min Rain = 0
KPD1 121720Z 14006KT 11/M06 A3037 RMK A01 T01131059  RH  029%=      5-min Rain = 0
KPD1 121721Z 15005KT 11/M06 A3037 RMK A01 T01131059  RH  030%=      5-min Rain = 0
KPD1 121722Z 17004KT 11/M06 A3037 RMK A01 T01121058  RH  030%=      5-min Rain = 0
KPD1 121723Z 19006KT 11/M06 A3037 RMK A01 T01131058  RH  030%=      5-min Rain = 0
KPD1 121724Z 19006KT 11/M06 A3037 RMK A01 T01141058  RH  029%=      5-min Rain = 0
KPD1 121725Z 19005KT 12/M06 A3037 RMK A01 T01161056  RH  030%=      5-min Rain = 0
KPD1 121726Z 18006KT 12/M06 A3037 RMK A01 T01181056  RH  029%=      5-min Rain = 0
KPD1 121727Z 21006KT 12/M06 A3037 RMK A01 T01181058  RH  029%=      5-min Rain = 0
KPD1 121728Z 22005KT 12/M06 A3037 RMK A01 T01171059  RH  029%=      5-min Rain = 0
KPD1 121729Z 16004KT 12/M06 A3037 RMK A01 T01171058  RH  029%=      5-min Rain = 0
KPD1 121730Z 14004KT 12/M06 A3037 RMK A01 T01191056  RH  029%=      5-min Rain = 0
KPD1 121731Z 10002KT 12/M06 A3037 RMK A01 T01191057  RH  029%=      5-min Rain = 0
KPD1 121732Z 14000KT 12/M06 A3037 RMK A01 T01171057  RH  029%=      5-min Rain = 0
KPD1 121733Z 13001KT 12/M06 A3036 RMK A01 T01171056  RH  029%=      5-min Rain = 0
KPD1 121734Z 12005KT 12/M06 A3036 RMK A01 T01191055  RH  029%=      5-min Rain = 0
KPD1 121735Z 11005KT 12/M05 A3036 RMK A01 T01211054  RH  029%=      5-min Rain = 0
KPD1 121736Z 14007KT 12/M06 A3036 RMK A01 T01211055  RH  029%=      5-min Rain = 0
KPD1 121737Z 14007KT 12/M06 A3036 RMK A01 T01201056  RH  029%=      5-min Rain = 0
KPD1 121738Z 15007KT 12/M06 A3036 RMK A01 T01191056  RH  029%=      5-min Rain = 0
KPD1 121739Z 11006KT 12/M06 A3036 RMK A01 T01191057  RH  029%=      5-min Rain = 0
KPD1 121740Z 16007KT 12/M06 A3036 RMK A01 T01191057  RH  029%=      5-min Rain = 0
KPD1 121741Z 18006KT 12/M06 A3036 RMK A01 T01201058  RH  028%=      5-min Rain = 0
KPD1 121742Z 15008KT 12/M06 A3036 RMK A01 T01201059  RH  028%=      5-min Rain = 0
KPD1 121743Z 15009KT 12/M06 A3036 RMK A01 T01201060  RH  028%=      5-min Rain = 0
KPD1 121744Z 15007KT 12/M06 A3036 RMK A01 T01191061  RH  028%=      5-min Rain = 0
KPD1 121745Z 12006KT 12/M06 A3036 RMK A01 T01201061  RH  028%=      5-min Rain = 0
KPD1 121746Z 12006KT 12/M06 A3036 RMK A01 T01201063  RH  027%=      5-min Rain = 0
KPD1 121747Z 18005KT 12/M06 A3036 RMK A01 T01201063  RH  027%=      5-min Rain = 0
KPD1 121748Z 17006KT 12/M06 A3036 RMK A01 T01221063  RH  027%=      5-min Rain = 0
KPD1 121749Z 15005KT 12/M07 A3036 RMK A01 T01221065  RH  027%=      5-min Rain = 0
KPD1 121750Z 15004KT 12/M07 A3036 RMK A01 T01231065  RH  026%=      5-min Rain = 0
KPD1 121751Z 16005KT 12/M06 A3036 RMK A01 T01241063  RH  026%=      5-min Rain = 0
KPD1 121752Z 15005KT 13/M06 A3036 RMK A01 T01261064  RH  026%=      5-min Rain = 0
KPD1 121753Z 14003KT 12/M07 A3036 RMK A01 T01231067  RH  026%=      5-min Rain = 0
KPD1 121754Z 11001KT 12/M07 A3035 RMK A01 T01201068  RH  026%=      5-min Rain = 0
KPD1 121755Z 06000KT 12/M07 A3035 RMK A01 T01201067  RH  027%=      5-min Rain = 0
KPD1 121756Z 14003KT 12/M07 A3035 RMK A01 T01201066  RH  027%=      5-min Rain = 0
KPD1 121757Z 16007KT 12/M06 A3035 RMK A01 T01231064  RH  027%=      5-min Rain = 0
KPD1 121758Z 15006KT 13/M06 A3035 RMK A01 T01251064  RH  026%=      5-min Rain = 0
KPD1 121759Z 16004KT 13/M07 A3035 RMK A01 T01251065  RH  026%=      5-min Rain = 0
KPD1 121800Z 14006KT 12/M07 A3035 RMK A01 T01221066  RH  026%=      5-min Rain = 0
KPD1 121801Z 15004KT 12/M07 A3035 RMK A01 T01231065  RH  026%=      5-min Rain = 0
KPD1 121802Z 07003KT 12/M06 A3035 RMK A01 T01241064  RH  026%=      5-min Rain = 0
KPD1 121803Z 07002KT 12/M07 A3035 RMK A01 T01231066  RH  026%=      5-min Rain = 0
KPD1 121804Z 10002KT 12/M06 A3035 RMK A01 T01231064  RH  026%=      5-min Rain = 0
KPD1 121805Z 18003KT 13/M06 A3035 RMK A01 T01251063  RH  026%=      5-min Rain = 0
KPD1 121806Z 18003KT 13/M06 A3035 RMK A01 T01291060  RH  026%=      5-min Rain = 0
KPD1 121807Z 15006KT 13/M06 A3035 RMK A01 T01321060  RH  026%=      5-min Rain = 0
KPD1 121808Z 14009KT 14/M06 A3035 RMK A01 T01351061  RH  025%=      5-min Rain = 0
KPD1 121809Z 15006G12KT 13/M06 A3034 RMK A01 T01331064  RH  025%=      5-min Rain = 0
KPD1 121810Z 17006KT 13/M06 A3034 RMK A01 T01321063  RH  025%=      5-min Rain = 0
KPD1 121811Z 18006KT 13/M06 A3034 RMK A01 T01341063  RH  025%=      5-min Rain = 0
KPD1 121812Z 15006KT 14/M06 A3034 RMK A01 T01351062  RH  025%=      5-min Rain = 0
KPD1 121813Z 16006KT 14/M06 A3035 RMK A01 T01361064  RH  024%=      5-min Rain = 0
KPD1 121814Z 10003KT 13/M07 A3034 RMK A01 T01321066  RH  024%=      5-min Rain = 0
KPD1 121815Z 13002KT 13/M07 A3034 RMK A01 T01321066  RH  025%=      5-min Rain = 0
KPD1 121816Z 21006KT 13/M06 A3034 RMK A01 T01321064  RH  025%=      5-min Rain = 0
KPD1 121817Z 21007KT 13/M07 A3034 RMK A01 T01331068  RH  024%=      5-min Rain = 0
KPD1 121818Z 22006KT 13/M07 A3034 RMK A01 T01291072  RH  024%=      5-min Rain = 0
KPD1 121819Z 23005KT 13/M07 A3034 RMK A01 T01271071  RH  024%=      5-min Rain = 0
KPD1 121820Z 22005G10KT 13/M07 A3034 RMK A01 T01281070  RH  025%=      5-min Rain = 0
KPD1 121821Z 17004KT 13/M07 A3034 RMK A01 T01281069  RH  025%=      5-min Rain = 0
KPD1 121822Z 16006KT 13/M07 A3034 RMK A01 T01301065  RH  025%=      5-min Rain = 0
KPD1 121823Z 15008KT 13/M06 A3034 RMK A01 T01331064  RH  025%=      5-min Rain = 0
KPD1 121824Z 14008KT 14/M07 A3034 RMK A01 T01351065  RH  024%=      5-min Rain = 0
KPD1 121825Z 18007KT 13/M07 A3034 RMK A01 T01331066  RH  024%=      5-min Rain = 0
KPD1 121826Z 19008KT 13/M07 A3034 RMK A01 T01331068  RH  024%=      5-min Rain = 0
KPD1 121827Z 16006KT 13/M07 A3034 RMK A01 T01321068  RH  024%=      5-min Rain = 0
KPD1 121828Z 14008KT 13/M07 A3034 RMK A01 T01321068  RH  024%=      5-min Rain = 0
KPD1 121829Z 13007KT 13/M07 A3034 RMK A01 T01301069  RH  024%=      5-min Rain = 0
KPD1 121830Z 11005KT 13/M07 A3034 RMK A01 T01311068  RH  024%=      5-min Rain = 0
KPD1 121831Z 12006KT 13/M07 A3034 RMK A01 T01291069  RH  024%=      5-min Rain = 0
KPD1 121832Z 12004KT 13/M07 A3033 RMK A01 T01291069  RH  025%=      5-min Rain = 0
KPD1 121833Z 11006KT 13/M07 A3033 RMK A01 T01281069  RH  025%=      5-min Rain = 0
KPD1 121834Z 11006KT 13/M07 A3033 RMK A01 T01311067  RH  025%=      5-min Rain = 0
KPD1 121835Z 12007KT 13/M07 A3033 RMK A01 T01341066  RH  024%=      5-min Rain = 0
KPD1 121836Z 14009KT 14/M07 A3033 RMK A01 T01371066  RH  024%=      5-min Rain = 0
KPD1 121837Z 15009KT 14/M07 A3033 RMK A01 T01381067  RH  024%=      5-min Rain = 0
KPD1 121838Z 14009KT 14/M07 A3033 RMK A01 T01391067  RH  023%=      5-min Rain = 0
KPD1 121839Z 14006KT 14/M07 A3033 RMK A01 T01361070  RH  023%=      5-min Rain = 0
KPD1 121840Z 13004KT 14/M07 A3033 RMK A01 T01351068  RH  024%=      5-min Rain = 0
KPD1 121841Z 15005KT 14/M07 A3033 RMK A01 T01361067  RH  024%=      5-min Rain = 0
KPD1 121842Z 14006KT 14/M07 A3033 RMK A01 T01371067  RH  024%=      5-min Rain = 0
KPD1 121843Z 20006KT 14/M07 A3033 RMK A01 T01401065  RH  024%=      5-min Rain = 0
KPD1 121844Z 21007KT 14/M07 A3033 RMK A01 T01421068  RH  023%=      5-min Rain = 0
KPD1 121845Z 19007KT 14/M07 A3033 RMK A01 T01391071  RH  023%=      5-min Rain = 0
KPD1 121846Z 20007KT 14/M07 A3033 RMK A01 T01351074  RH  023%=      5-min Rain = 0
KPD1 121847Z 28003KT 13/M08 A3033 RMK A01 T01341075  RH  023%=      5-min Rain = 0
KPD1 121848Z 17004G11KT 13/M08 A3033 RMK A01 T01321076  RH  023%=      5-min Rain = 0
KPD1 121849Z 16009KT 13/M07 A3033 RMK A01 T01331073  RH  023%=      5-min Rain = 0
KPD1 121850Z 16006KT 14/M07 A3033 RMK A01 T01351073  RH  023%=      5-min Rain = 0
KPD1 121851Z 20008KT 14/M07 A3033 RMK A01 T01391072  RH  023%=      5-min Rain = 0
KPD1 121852Z 22006KT 14/M07 A3033 RMK A01 T01401074  RH  022%=      5-min Rain = 0
KPD1 121853Z 22002KT 14/M08 A3033 RMK A01 T01361079  RH  022%=      5-min Rain = 0
KPD1 121854Z 20001KT 13/M08 A3033 RMK A01 T01331079  RH  022%=      5-min Rain = 0
KPD1 121855Z 24003KT 13/M08 A3033 RMK A01 T01331076  RH  023%=      5-min Rain = 0
KPD1 121856Z 28003KT 14/M08 A3033 RMK A01 T01351076  RH  023%=      5-min Rain = 0
KPD1 121857Z 27002KT 14/M08 A3033 RMK A01 T01351076  RH  022%=      5-min Rain = 0
KPD1 121858Z 15000KT 14/M08 A3033 RMK A01 T01361075  RH  023%=      5-min Rain = 0
KPD1 121859Z 07001KT 14/M08 A3032 RMK A01 T01351075  RH  022%=      5-min Rain = 0
KPD1 121900Z 10003KT 14/M07 A3032 RMK A01 T01371073  RH  023%=      5-min Rain = 0
KPD1 121901Z 12005KT 14/M07 A3032 RMK A01 T01401073  RH  022%=      5-min Rain = 0
KPD1 121902Z 13004KT 14/M07 A3032 RMK A01 T01391074  RH  022%=      5-min Rain = 0
KPD1 121903Z 16008KT 14/M07 A3032 RMK A01 T01411071  RH  022%=      5-min Rain = 0
KPD1 121904Z 19005KT 14/M07 A3032 RMK A01 T01421071  RH  022%=      5-min Rain = 0
KPD1 121905Z 21008KT 14/M07 A3032 RMK A01 T01421071  RH  022%=      5-min Rain = 0
KPD1 121906Z 20006KT 14/M07 A3032 RMK A01 T01441071  RH  022%=      5-min Rain = 0
KPD1 121907Z 16005KT 14/M08 A3032 RMK A01 T01411076  RH  022%=      5-min Rain = 0
KPD1 121908Z 18002KT 14/M08 A3032 RMK A01 T01371077  RH  022%=      5-min Rain = 0
KPD1 121909Z 18004KT 14/M07 A3032 RMK A01 T01381074  RH  022%=      5-min Rain = 0
KPD1 121910Z 22005KT 14/M07 A3032 RMK A01 T01411071  RH  022%=      5-min Rain = 0
KPD1 121911Z 25003KT 14/M07 A3032 RMK A01 T01441073  RH  022%=      5-min Rain = 0
KPD1 121912Z 26002KT 14/M08 A3032 RMK A01 T01431076  RH  021%=      5-min Rain = 0
KPD1 121913Z 30003KT 14/M08 A3032 RMK A01 T01431075  RH  022%=      5-min Rain = 0
KPD1 121914Z 31003KT 15/M07 A3031 RMK A01 T01451072  RH  022%=      5-min Rain = 0
KPD1 121915Z 31002KT 15/M07 A3031 RMK A01 T01471074  RH  021%=      5-min Rain = 0
KPD1 121916Z 35004KT 15/M07 A3031 RMK A01 T01471074  RH  021%=      5-min Rain = 0
KPD1 121917Z 00003KT 15/M07 A3031 RMK A01 T01471074  RH  021%=      5-min Rain = 0
KPD1 121918Z 30004KT 15/M07 A3031 RMK A01 T01461074  RH  021%=      5-min Rain = 0
KPD1 121919Z 30002KT 14/M08 A3031 RMK A01 T01441076  RH  021%=      5-min Rain = 0
KPD1 121920Z 20002KT 14/M08 A3031 RMK A01 T01411076  RH  022%=      5-min Rain = 0
KPD1 121921Z 22002KT 15/M07 A3031 RMK A01 T01451069  RH  022%=      5-min Rain = 0
KPD1 121922Z 26000KT 15/M07 A3031 RMK A01 T01511068  RH  022%=      5-min Rain = 0
KPD1 121923Z 26005KT 15/M07 A3031 RMK A01 T01521071  RH  021%=      5-min Rain = 0
KPD1 121924Z 24007KT 15/M07 A3031 RMK A01 T01501073  RH  021%=      5-min Rain = 0
KPD1 121925Z 22007KT 15/M07 A3031 RMK A01 T01481073  RH  021%=      5-min Rain = 0
KPD1 121926Z 22010KT 15/M07 A303 RMK A01 T01461074  RH  021%=      5-min Rain = 0
KPD1 121927Z 22008KT 14/M07 A303 RMK A01 T01441073  RH  022%=      5-min Rain = 0
KPD1 121928Z 24003KT 14/M07 A303 RMK A01 T01421072  RH  022%=      5-min Rain = 0
KPD1 121929Z 25004KT 15/M07 A303 RMK A01 T01451069  RH  022%=      5-min Rain = 0
KPD1 121930Z 23005G11KT 15/M07 A303 RMK A01 T01471069  RH  022%=      5-min Rain = 0
KPD1 121931Z 15009KT 15/M07 A303 RMK A01 T01491070  RH  021%=      5-min Rain = 0
KPD1 121932Z 17006KT 15/M07 A303 RMK A01 T01501071  RH  021%=      5-min Rain = 0
KPD1 121933Z 19005KT 15/M07 A303 RMK A01 T01481071  RH  021%=      5-min Rain = 0
KPD1 121934Z 18007KT 15/M07 A303 RMK A01 T01501067  RH  022%=      5-min Rain = 0
KPD1 121935Z 20006KT 15/M07 A303 RMK A01 T01541066  RH  021%=      5-min Rain = 0
KPD1 121936Z 21003KT 15/M07 A303 RMK A01 T01541066  RH  021%=      5-min Rain = 0
KPD1 121937Z 15005KT 16/M07 A303 RMK A01 T01561066  RH  021%=      5-min Rain = 0
KPD1 121938Z 17007KT 16/M07 A303 RMK A01 T01561067  RH  021%=      5-min Rain = 0
KPD1 121939Z 17008KT 15/M07 A303 RMK A01 T01531068  RH  021%=      5-min Rain = 0
KPD1 121940Z 17005KT 15/M07 A303 RMK A01 T01511070  RH  021%=      5-min Rain = 0
KPD1 121941Z 20004G10KT 15/M07 A303 RMK A01 T01491070  RH  021%=      5-min Rain = 0
KPD1 121942Z 18010KT 15/M07 A303 RMK A01 T01511067  RH  022%=      5-min Rain = 0
KPD1 121943Z 18007KT 15/M07 A303 RMK A01 T01511068  RH  022%=      5-min Rain = 0
KPD1 121944Z 15007KT 15/M07 A3029 RMK A01 T01501067  RH  022%=      5-min Rain = 0
KPD1 121945Z 16008KT 15/M07 A3029 RMK A01 T01491067  RH  022%=      5-min Rain = 0
KPD1 121946Z 17004KT 15/M07 A3029 RMK A01 T01491068  RH  022%=      5-min Rain = 0
KPD1 121947Z 18007KT 15/M07 A3029 RMK A01 T01481068  RH  022%=      5-min Rain = 0
KPD1 121948Z 18009KT 15/M07 A3029 RMK A01 T01511067  RH  022%=      5-min Rain = 0
KPD1 121949Z 17007KT 15/M07 A3029 RMK A01 T01511069  RH  021%=      5-min Rain = 0
KPD1 121950Z 15009KT 15/M07 A3029 RMK A01 T01491070  RH  021%=      5-min Rain = 0
KPD1 121951Z 15008KT 15/M07 A3029 RMK A01 T01491070  RH  021%=      5-min Rain = 0
KPD1 121952Z 15007KT 15/M07 A3029 RMK A01 T01461072  RH  021%=      5-min Rain = 0
KPD1 121953Z 16008KT 14/M07 A3029 RMK A01 T01421073  RH  022%=      5-min Rain = 0
KPD1 121954Z 21007KT 14/M07 A3029 RMK A01 T01431071  RH  022%=      5-min Rain = 0
KPD1 121955Z 23004KT 15/M07 A3029 RMK A01 T01461069  RH  022%=      5-min Rain = 0
KPD1 121956Z 22006KT 15/M07 A3029 RMK A01 T01471070  RH  022%=      5-min Rain = 0
KPD1 121957Z 21011KT 15/M07 A3029 RMK A01 T01521067  RH  022%=      5-min Rain = 0
KPD1 121958Z 21008KT 15/M07 A3029 RMK A01 T01511071  RH  021%=      5-min Rain = 0
KPD1 121959Z 21006KT 15/M07 A3029 RMK A01 T01481072  RH  021%=      5-min Rain = 0
KPD1 122000Z 18006KT 15/M07 A3028 RMK A01 T01471072  RH  021%=      5-min Rain = 0
KPD1 122001Z 17004KT 15/M07 A3028 RMK A01 T01461072  RH  021%=      5-min Rain = 0
KPD1 122002Z 20003KT 15/M07 A3028 RMK A01 T01491070  RH  021%=      5-min Rain = 0
KPD1 122003Z 18003KT 15/M07 A3028 RMK A01 T01531070  RH  021%=      5-min Rain = 0
KPD1 122004Z 20002KT 15/M07 A3028 RMK A01 T01541070  RH  021%=      5-min Rain = 0
KPD1 122005Z 21008KT 16/M07 A3028 RMK A01 T01551070  RH  021%=      5-min Rain = 0
KPD1 122006Z 20008KT 15/M07 A3028 RMK A01 T01541072  RH  020%=      5-min Rain = 0
KPD1 122007Z 21004G9KT 15/M07 A3028 RMK A01 T01501074  RH  021%=      5-min Rain = 0
KPD1 122008Z 18004KT 15/M08 A3028 RMK A01 T01471075  RH  021%=      5-min Rain = 0
KPD1 122009Z 23002KT 15/M07 A3028 RMK A01 T01461074  RH  021%=      5-min Rain = 0
KPD1 122010Z 20003KT 15/M07 A3028 RMK A01 T01451074  RH  021%=      5-min Rain = 0
KPD1 122011Z 16001KT 15/M07 A3028 RMK A01 T01471074  RH  021%=      5-min Rain = 0
KPD1 122012Z 23006KT 15/M07 A3028 RMK A01 T01511070  RH  021%=      5-min Rain = 0
KPD1 122013Z 23008KT 15/M07 A3028 RMK A01 T01531071  RH  021%=      5-min Rain = 0
KPD1 122014Z 21004KT 15/M07 A3028 RMK A01 T01521073  RH  021%=      5-min Rain = 0
KPD1 122015Z 26004KT 15/M08 A3028 RMK A01 T01491075  RH  021%=      5-min Rain = 0
KPD1 122016Z 28003KT 15/M07 A3028 RMK A01 T01471074  RH  021%=      5-min Rain = 0
KPD1 122017Z 28002KT 15/M07 A3027 RMK A01 T01481071  RH  021%=      5-min Rain = 0
KPD1 122018Z 26005KT 15/M07 A3027 RMK A01 T01511071  RH  021%=      5-min Rain = 0
KPD1 122019Z 23007KT 15/M07 A3027 RMK A01 T01521073  RH  021%=      5-min Rain = 0
KPD1 122020Z 23007KT 15/M07 A3027 RMK A01 T01531072  RH  020%=      5-min Rain = 0
KPD1 122021Z 26005KT 15/M07 A3027 RMK A01 T01511074  RH  020%=      5-min Rain = 0
KPD1 122022Z 26005KT 15/M08 A3027 RMK A01 T01481075  RH  021%=      5-min Rain = 0
KPD1 122023Z 20007KT 15/M07 A3027 RMK A01 T01501073  RH  021%=      5-min Rain = 0
KPD1 122024Z 20008KT 15/M07 A3027 RMK A01 T01511074  RH  020%=      5-min Rain = 0
KPD1 122025Z 19009KT 15/M07 A3027 RMK A01 T01521074  RH  020%=      5-min Rain = 0
KPD1 122026Z 18008KT 15/M08 A3027 RMK A01 T01531075  RH  020%=      5-min Rain = 0
KPD1 122027Z 19008KT 15/M08 A3027 RMK A01 T01521077  RH  020%=      5-min Rain = 0
KPD1 122028Z 20007KT 15/M08 A3027 RMK A01 T01521075  RH  020%=      5-min Rain = 0
KPD1 122029Z 19007G12KT 15/M08 A3027 RMK A01 T01521077  RH  020%=      5-min Rain = 0
KPD1 122030Z 19005KT 15/M08 A3027 RMK A01 T01521078  RH  020%=      5-min Rain = 0
KPD1 122031Z 18009KT 15/M08 A3027 RMK A01 T01511078  RH  020%=      5-min Rain = 0
KPD1 122032Z 19009KT 15/M08 A3027 RMK A01 T01521077  RH  020%=      5-min Rain = 0
KPD1 122033Z 21007KT 15/M08 A3027 RMK A01 T01541077  RH  020%=      5-min Rain = 0
KPD1 122034Z 18004KT 15/M08 A3027 RMK A01 T01521081  RH  019%=      5-min Rain = 0
KPD1 122035Z 15003KT 15/M08 A3027 RMK A01 T01491081  RH  020%=      5-min Rain = 0
KPD1 122036Z 17002KT 15/M08 A3027 RMK A01 T01481080  RH  020%=      5-min Rain = 0
KPD1 122037Z 16006KT 15/M08 A3027 RMK A01 T01491078  RH  020%=      5-min Rain = 0
KPD1 122038Z 16003KT 15/M08 A3027 RMK A01 T01521081  RH  019%=      5-min Rain = 0
KPD1 122039Z 14004KT 15/M08 A3027 RMK A01 T01501083  RH  019%=      5-min Rain = 0
KPD1 122040Z 14005KT 15/M08 A3027 RMK A01 T01491083  RH  019%=      5-min Rain = 0
KPD1 122041Z 12005KT 15/M08 A3026 RMK A01 T01491082  RH  020%=      5-min Rain = 0
KPD1 122042Z 15005KT 15/M08 A3026 RMK A01 T01491081  RH  020%=      5-min Rain = 0
KPD1 122043Z 15007KT 15/M08 A3026 RMK A01 T01501080  RH  020%=      5-min Rain = 0
KPD1 122044Z 16004KT 15/M08 A3026 RMK A01 T01531078  RH  020%=      5-min Rain = 0
KPD1 122045Z 15006KT 16/M08 A3026 RMK A01 T01551078  RH  019%=      5-min Rain = 0
KPD1 122046Z 13006KT 16/M08 A3026 RMK A01 T01571078  RH  019%=      5-min Rain = 0
KPD1 122047Z 13003KT 16/M08 A3026 RMK A01 T01551081  RH  019%=      5-min Rain = 0
KPD1 122048Z 18004G10KT 16/M08 A3026 RMK A01 T01561077  RH  019%=      5-min Rain = 0
KPD1 122049Z 22008KT 16/M08 A3026 RMK A01 T01591076  RH  019%=      5-min Rain = 0
KPD1 122050Z 21007KT 16/M08 A3026 RMK A01 T01601078  RH  019%=      5-min Rain = 0
KPD1 122051Z 19005KT 16/M08 A3026 RMK A01 T01581080  RH  019%=      5-min Rain = 0
KPD1 122052Z 17006KT 16/M08 A3026 RMK A01 T01561080  RH  019%=      5-min Rain = 0
KPD1 122053Z 12002KT 16/M08 A3026 RMK A01 T01561079  RH  019%=      5-min Rain = 0
KPD1 122054Z 17003KT 16/M08 A3026 RMK A01 T01561081  RH  019%=      5-min Rain = 0
KPD1 122055Z 18004KT 15/M08 A3026 RMK A01 T01541081  RH  019%=      5-min Rain = 0
KPD1 122056Z 19007KT 15/M08 A3026 RMK A01 T01541080  RH  019%=      5-min Rain = 0
KPD1 122057Z 20005KT 15/M08 A3026 RMK A01 T01521082  RH  019%=      5-min Rain = 0
KPD1 122058Z 21003KT 15/M08 A3026 RMK A01 T01521081  RH  019%=      5-min Rain = 0
KPD1 122059Z 22002KT 15/M08 A3025 RMK A01 T01541081  RH  019%=      5-min Rain = 0
KPD1 122100Z 17000KT 16/M08 A3025 RMK A01 T01551081  RH  019%=      5-min Rain = 0
KPD1 122101Z 10002KT 16/M08 A3025 RMK A01 T01561082  RH  019%=      5-min Rain = 0
KPD1 122102Z 12004KT 16/M08 A3025 RMK A01 T01561082  RH  019%=      5-min Rain = 0
KPD1 122103Z 19006KT 16/M08 A3025 RMK A01 T01551082  RH  019%=      5-min Rain = 0
KPD1 122104Z 18007KT 15/M08 A3025 RMK A01 T01541082  RH  019%=      5-min Rain = 0
KPD1 122105Z 19007KT 15/M08 A3025 RMK A01 T01531084  RH  019%=      5-min Rain = 0
KPD1 122106Z 18003KT 15/M09 A3025 RMK A01 T01501085  RH  019%=      5-min Rain = 0
KPD1 122107Z 17006KT 15/M08 A3025 RMK A01 T01501083  RH  019%=      5-min Rain = 0
KPD1 122108Z 16004KT 15/M08 A3024 RMK A01 T01511083  RH  019%=      5-min Rain = 0
KPD1 122109Z 17007KT 16/M08 A3024 RMK A01 T01551080  RH  019%=      5-min Rain = 0
KPD1 122110Z 17007KT 16/M08 A3024 RMK A01 T01571081  RH  019%=      5-min Rain = 0
KPD1 122111Z 18009KT 16/M08 A3024 RMK A01 T01591082  RH  018%=      5-min Rain = 0
KPD1 122112Z 19009KT 16/M08 A3024 RMK A01 T01601083  RH  018%=      5-min Rain = 0
KPD1 122113Z 18006G11KT 16/M09 A3024 RMK A01 T01581085  RH  018%=      5-min Rain = 0
KPD1 122114Z 17008KT 16/M08 A3024 RMK A01 T01571084  RH  018%=      5-min Rain = 0
KPD1 122115Z 19004KT 16/M08 A3024 RMK A01 T01591084  RH  018%=      5-min Rain = 0
KPD1 122116Z 22009KT 16/M09 A3024 RMK A01 T01591085  RH  018%=      5-min Rain = 0
KPD1 122117Z 23008KT 16/M09 A3024 RMK A01 T01581085  RH  018%=      5-min Rain = 0
KPD1 122118Z 28006G11KT 16/M09 A3024 RMK A01 T01561086  RH  018%=      5-min Rain = 0
KPD1 122119Z 25004KT 15/M09 A3024 RMK A01 T01521088  RH  018%=      5-min Rain = 0
KPD1 122120Z 23005KT 15/M09 A3024 RMK A01 T01511086  RH  019%=      5-min Rain = 0
KPD1 122121Z 21006KT 15/M08 A3024 RMK A01 T01521084  RH  019%=      5-min Rain = 0
KPD1 122122Z 17007KT 16/M08 A3024 RMK A01 T01581081  RH  019%=      5-min Rain = 0
KPD1 122123Z 19007KT 16/M08 A3024 RMK A01 T01611081  RH  018%=      5-min Rain = 0
KPD1 122124Z 18008KT 16/M08 A3024 RMK A01 T01631082  RH  018%=      5-min Rain = 0
KPD1 122125Z 17005KT 16/M09 A3024 RMK A01 T01601086  RH  018%=      5-min Rain = 0
KPD1 122126Z 14002KT 16/M09 A3024 RMK A01 T01561089  RH  018%=      5-min Rain = 0
KPD1 122127Z 16000KT 15/M09 A3024 RMK A01 T01541088  RH  018%=      5-min Rain = 0
KPD1 122128Z 23000KT 15/M09 A3023 RMK A01 T01531089  RH  018%=      5-min Rain = 0
KPD1 122129Z 22001KT 15/M09 A3023 RMK A01 T01531087  RH  018%=      5-min Rain = 0
KPD1 122130Z 18003KT 15/M09 A3023 RMK A01 T01541087  RH  018%=      5-min Rain = 0
KPD1 122131Z 16005KT 16/M09 A3023 RMK A01 T01551086  RH  018%=      5-min Rain = 0
KPD1 122132Z 20006KT 16/M09 A3023 RMK A01 T01551085  RH  018%=      5-min Rain = 0
KPD1 122133Z 22004KT 16/M09 A3023 RMK A01 T01561085  RH  018%=      5-min Rain = 0
KPD1 122134Z 24003G8KT 16/M09 A3023 RMK A01 T01551085  RH  018%=      5-min Rain = 0
KPD1 122135Z 22006KT 16/M08 A3023 RMK A01 T01561084  RH  018%=      5-min Rain = 0
KPD1 122136Z 19008KT 16/M08 A3023 RMK A01 T01581083  RH  018%=      5-min Rain = 0
KPD1 122137Z 18008KT 16/M08 A3023 RMK A01 T01591083  RH  018%=      5-min Rain = 0
KPD1 122138Z 19008KT 16/M08 A3023 RMK A01 T01601082  RH  018%=      5-min Rain = 0
KPD1 122139Z 18011KT 16/M08 A3023 RMK A01 T01601082  RH  018%=      5-min Rain = 0
KPD1 122140Z 19009KT 16/M08 A3023 RMK A01 T01591084  RH  018%=      5-min Rain = 0
KPD1 122141Z 18006KT 16/M09 A3023 RMK A01 T01551086  RH  018%=      5-min Rain = 0
KPD1 122142Z 18009KT 16/M08 A3023 RMK A01 T01551082  RH  019%=      5-min Rain = 0
KPD1 122143Z 17006G11KT 16/M08 A3023 RMK A01 T01571082  RH  018%=      5-min Rain = 0
KPD1 122144Z 16007KT 16/M08 A3023 RMK A01 T01581083  RH  018%=      5-min Rain = 0
KPD1 122145Z 18006KT 16/M08 A3023 RMK A01 T01581084  RH  018%=      5-min Rain = 0
KPD1 122146Z 17004KT 16/M08 A3023 RMK A01 T01581083  RH  018%=      5-min Rain = 0
KPD1 122147Z 13001KT 16/M08 A3023 RMK A01 T01591083  RH  018%=      5-min Rain = 0
KPD1 122148Z 11002KT 16/M09 A3022 RMK A01 T01581086  RH  018%=      5-min Rain = 0
KPD1 122149Z 14003KT 16/M09 A3022 RMK A01 T01551086  RH  018%=      5-min Rain = 0
KPD1 122150Z 14003KT 16/M08 A3022 RMK A01 T01571083  RH  018%=      5-min Rain = 0
KPD1 122151Z 14005KT 16/M08 A3022 RMK A01 T01581083  RH  018%=      5-min Rain = 0
KPD1 122152Z 17007G13KT 16/M08 A3022 RMK A01 T01611083  RH  018%=      5-min Rain = 0
KPD1 122153Z 18009G14KT 17/M08 A3022 RMK A01 T01651083  RH  018%=      5-min Rain = 0
KPD1 122154Z 20010KT 17/M08 A3022 RMK A01 T01661084  RH  017%=      5-min Rain = 0
KPD1 122155Z 20005KT 16/M09 A3022 RMK A01 T01621088  RH  017%=      5-min Rain = 0
KPD1 122156Z 18010KT 16/M09 A3022 RMK A01 T01591088  RH  017%=      5-min Rain = 0
KPD1 122157Z 18008KT 16/M09 A3022 RMK A01 T01591086  RH  018%=      5-min Rain = 0
KPD1 122158Z 19008KT 16/M09 A3022 RMK A01 T01601086  RH  018%=      5-min Rain = 0
KPD1 122159Z 18006KT 16/M09 A3022 RMK A01 T01601086  RH  018%=      5-min Rain = 0
KPD1 122200Z 19009KT 16/M09 A3022 RMK A01 T01601086  RH  018%=      5-min Rain = 0
KPD1 122201Z 19006KT 16/M09 A3022 RMK A01 T01611086  RH  018%=      5-min Rain = 0
KPD1 122202Z 18004KT 16/M09 A3022 RMK A01 T01611088  RH  017%=      5-min Rain = 0
KPD1 122203Z 17003KT 16/M09 A3022 RMK A01 T01591090  RH  017%=      5-min Rain = 0
KPD1 122204Z 15002KT 16/M09 A3022 RMK A01 T01571089  RH  018%=      5-min Rain = 0
KPD1 122205Z 22001KT 16/M09 A3022 RMK A01 T01561089  RH  018%=      5-min Rain = 0
KPD1 122206Z 16002KT 16/M09 A3022 RMK A01 T01571086  RH  018%=      5-min Rain = 0
KPD1 122207Z 17005KT 16/M09 A3022 RMK A01 T01601086  RH  018%=      5-min Rain = 0
KPD1 122208Z 22006KT 16/M08 A3021 RMK A01 T01611084  RH  018%=      5-min Rain = 0
KPD1 122209Z 21011KT 16/M08 A3021 RMK A01 T01641084  RH  018%=      5-min Rain = 0
KPD1 122210Z 22009KT 16/M09 A3021 RMK A01 T01631086  RH  017%=      5-min Rain = 0
KPD1 122211Z 21008KT 16/M09 A3021 RMK A01 T01601090  RH  017%=      5-min Rain = 0
KPD1 122212Z 23008KT 16/M09 A3021 RMK A01 T01581089  RH  017%=      5-min Rain = 0
KPD1 122213Z 21009KT 16/M09 A3021 RMK A01 T01581087  RH  018%=      5-min Rain = 0
KPD1 122214Z 23008KT 16/M09 A3021 RMK A01 T01601088  RH  017%=      5-min Rain = 0
KPD1 122215Z 22008KT 16/M09 A3021 RMK A01 T01591090  RH  017%=      5-min Rain = 0
KPD1 122216Z 20007KT 16/M09 A3021 RMK A01 T01581089  RH  017%=      5-min Rain = 0
KPD1 122217Z 19006KT 16/M09 A3021 RMK A01 T01561090  RH  017%=      5-min Rain = 0
KPD1 122218Z 19007KT 16/M09 A3021 RMK A01 T01571089  RH  017%=      5-min Rain = 0
KPD1 122219Z 17006KT 16/M09 A3021 RMK A01 T01591089  RH  017%=      5-min Rain = 0
KPD1 122220Z 19006KT 16/M09 A3021 RMK A01 T01581091  RH  017%=      5-min Rain = 0
KPD1 122221Z 20006KT 16/M09 A3021 RMK A01 T01571091  RH  017%=      5-min Rain = 0
KPD1 122222Z 21001KT 16/M09 A3021 RMK A01 T01571091  RH  017%=      5-min Rain = 0
KPD1 122223Z 17007G12KT 16/M09 A3021 RMK A01 T01581091  RH  017%=      5-min Rain = 0
KPD1 122224Z 16008KT 16/M09 A3021 RMK A01 T01581090  RH  017%=      5-min Rain = 0
KPD1 122225Z 17010KT 16/M09 A3021 RMK A01 T01581090  RH  017%=      5-min Rain = 0
KPD1 122226Z 19008KT 16/M09 A3021 RMK A01 T01581089  RH  017%=      5-min Rain = 0
KPD1 122227Z 19006KT 16/M09 A3021 RMK A01 T01571089  RH  018%=      5-min Rain = 0
KPD1 122228Z 20005KT 16/M09 A3021 RMK A01 T01561090  RH  018%=      5-min Rain = 0
KPD1 122229Z 21010KT 16/M09 A3021 RMK A01 T01551089  RH  018%=      5-min Rain = 0
KPD1 122230Z 21011KT 16/M09 A3021 RMK A01 T01561088  RH  018%=      5-min Rain = 0
KPD1 122231Z 21009KT 16/M09 A3021 RMK A01 T01571088  RH  018%=      5-min Rain = 0
KPD1 122232Z 20008KT 16/M09 A3021 RMK A01 T01571089  RH  018%=      5-min Rain = 0
KPD1 122233Z 19009KT 16/M09 A3021 RMK A01 T01571088  RH  018%=      5-min Rain = 0
KPD1 122234Z 19008KT 16/M09 A3021 RMK A01 T01571089  RH  018%=      5-min Rain = 0
KPD1 122235Z 19011KT 16/M09 A3021 RMK A01 T01571089  RH  018%=      5-min Rain = 0
KPD1 122236Z 20008KT 16/M09 A3021 RMK A01 T01571090  RH  017%=      5-min Rain = 0
KPD1 122237Z 20009KT 16/M09 A302 RMK A01 T01561090  RH  017%=      5-min Rain = 0
KPD1 122238Z 19007KT 16/M09 A302 RMK A01 T01561090  RH  018%=      5-min Rain = 0
KPD1 122239Z 16007KT 16/M09 A302 RMK A01 T01571090  RH  017%=      5-min Rain = 0
KPD1 122240Z 15005KT 16/M09 A302 RMK A01 T01561091  RH  017%=      5-min Rain = 0
KPD1 122241Z 15009KT 16/M09 A302 RMK A01 T01561090  RH  017%=      5-min Rain = 0
KPD1 122242Z 15007KT 16/M09 A302 RMK A01 T01561091  RH  017%=      5-min Rain = 0
KPD1 122243Z 16008KT 16/M09 A302 RMK A01 T01571091  RH  017%=      5-min Rain = 0
KPD1 122244Z 15008KT 16/M09 A302 RMK A01 T01571091  RH  017%=      5-min Rain = 0
KPD1 122245Z 17007KT 16/M09 A302 RMK A01 T01561091  RH  017%=      5-min Rain = 0
KPD1 122246Z 18007KT 16/M09 A302 RMK A01 T01571091  RH  017%=      5-min Rain = 0
KPD1 122247Z 19007KT 16/M09 A302 RMK A01 T01591088  RH  017%=      5-min Rain = 0
KPD1 122248Z 21009KT 16/M09 A302 RMK A01 T01611087  RH  017%=      5-min Rain = 0
KPD1 122249Z 21006KT 16/M09 A302 RMK A01 T01611088  RH  017%=      5-min Rain = 0
KPD1 122250Z 20008KT 16/M09 A302 RMK A01 T01611088  RH  017%=      5-min Rain = 0
KPD1 122251Z 20006KT 16/M09 A302 RMK A01 T01611089  RH  017%=      5-min Rain = 0
KPD1 122252Z 21006KT 16/M09 A302 RMK A01 T01591091  RH  017%=      5-min Rain = 0
KPD1 122253Z 21006KT 16/M09 A302 RMK A01 T01571091  RH  017%=      5-min Rain = 0
KPD1 122254Z 20005KT 16/M09 A302 RMK A01 T01561091  RH  017%=      5-min Rain = 0
KPD1 122255Z 20009KT 16/M09 A302 RMK A01 T01551090  RH  018%=      5-min Rain = 0
KPD1 122256Z 18007KT 16/M09 A302 RMK A01 T01551088  RH  018%=      5-min Rain = 0
KPD1 122257Z 18010KT 16/M09 A302 RMK A01 T01571088  RH  018%=      5-min Rain = 0
KPD1 122258Z 18009KT 16/M09 A302 RMK A01 T01561090  RH  018%=      5-min Rain = 0
KPD1 122259Z 16006KT 15/M09 A302 RMK A01 T01531091  RH  018%=      5-min Rain = 0
KPD1 122300Z 17007KT 15/M09 A302 RMK A01 T01521091  RH  018%=      5-min Rain = 0
KPD1 122301Z 20008KT 15/M09 A302 RMK A01 T01521090  RH  018%=      5-min Rain = 0
KPD1 122302Z 22007KT 15/M09 A302 RMK A01 T01531090  RH  018%=      5-min Rain = 0
KPD1 122303Z 21007KT 15/M09 A302 RMK A01 T01531090  RH  018%=      5-min Rain = 0
KPD1 122304Z 20007KT 15/M09 A302 RMK A01 T01531090  RH  018%=      5-min Rain = 0
KPD1 122305Z 21007KT 15/M09 A302 RMK A01 T01531088  RH  018%=      5-min Rain = 0
KPD1 122306Z 21005KT 15/M09 A302 RMK A01 T01521089  RH  018%=      5-min Rain = 0
KPD1 122307Z 20004KT 15/M09 A302 RMK A01 T01521090  RH  018%=      5-min Rain = 0
KPD1 122308Z 17007KT 15/M09 A302 RMK A01 T01521089  RH  018%=      5-min Rain = 0
KPD1 122309Z 17006KT 15/M09 A302 RMK A01 T01521089  RH  018%=      5-min Rain = 0
KPD1 122310Z 16004KT 15/M09 A302 RMK A01 T01511089  RH  018%=      5-min Rain = 0
KPD1 122311Z 17004KT 15/M09 A302 RMK A01 T01511089  RH  018%=      5-min Rain = 0
KPD1 122312Z 21004KT 15/M09 A302 RMK A01 T01511089  RH  018%=      5-min Rain = 0
KPD1 122313Z 21004KT 15/M09 A302 RMK A01 T01521088  RH  018%=      5-min Rain = 0
KPD1 122314Z 17006G11KT 16/M09 A302 RMK A01 T01551085  RH  018%=      5-min Rain = 0
KPD1 122315Z 17008KT 16/M09 A302 RMK A01 T01571085  RH  018%=      5-min Rain = 0
KPD1 122316Z 17007KT 16/M09 A3019 RMK A01 T01561086  RH  018%=      5-min Rain = 0
KPD1 122317Z 16006KT 16/M09 A3019 RMK A01 T01551087  RH  018%=      5-min Rain = 0
KPD1 122318Z 16005KT 15/M09 A3019 RMK A01 T01541087  RH  018%=      5-min Rain = 0
KPD1 122319Z 15005KT 15/M09 A3019 RMK A01 T01541086  RH  018%=      5-min Rain = 0
KPD1 122320Z 14006KT 15/M09 A3019 RMK A01 T01541087  RH  018%=      5-min Rain = 0
KPD1 122321Z 13004KT 15/M09 A3019 RMK A01 T01521087  RH  018%=      5-min Rain = 0
KPD1 122322Z 15003KT 15/M09 A3019 RMK A01 T01511087  RH  018%=      5-min Rain = 0
KPD1 122323Z 18004KT 15/M09 A3019 RMK A01 T01521086  RH  019%=      5-min Rain = 0
KPD1 122324Z 20002KT 15/M09 A3019 RMK A01 T01521087  RH  018%=      5-min Rain = 0
KPD1 122325Z 20003KT 15/M09 A3019 RMK A01 T01511088  RH  018%=      5-min Rain = 0
KPD1 122326Z 23005KT 15/M09 A3019 RMK A01 T01501087  RH  019%=      5-min Rain = 0
KPD1 122327Z 23008KT 15/M09 A3019 RMK A01 T01501087  RH  019%=      5-min Rain = 0
KPD1 122328Z 21006KT 15/M09 A3019 RMK A01 T01501087  RH  019%=      5-min Rain = 0
KPD1 122329Z 20009KT 15/M09 A3019 RMK A01 T01491088  RH  019%=      5-min Rain = 0
KPD1 122330Z 20006KT 15/M09 A3019 RMK A01 T01481087  RH  019%=      5-min Rain = 0
KPD1 122331Z 20008KT 15/M09 A3019 RMK A01 T01461088  RH  019%=      5-min Rain = 0
KPD1 122332Z 20011KT 15/M09 A3019 RMK A01 T01451087  RH  019%=      5-min Rain = 0
KPD1 122333Z 19006KT 14/M09 A3019 RMK A01 T01441088  RH  019%=      5-min Rain = 0
KPD1 122334Z 18006KT 14/M09 A3019 RMK A01 T01441087  RH  019%=      5-min Rain = 0
KPD1 122335Z 19008KT 14/M09 A3019 RMK A01 T01441086  RH  020%=      5-min Rain = 0
KPD1 122336Z 21007KT 14/M09 A302 RMK A01 T01441085  RH  020%=      5-min Rain = 0
KPD1 122337Z 22009KT 14/M09 A302 RMK A01 T01441086  RH  020%=      5-min Rain = 0
KPD1 122338Z 22008KT 14/M09 A302 RMK A01 T01441086  RH  020%=      5-min Rain = 0
KPD1 122339Z 22006KT 14/M09 A302 RMK A01 T01431087  RH  020%=      5-min Rain = 0
KPD1 122340Z 22004KT 14/M09 A302 RMK A01 T01431086  RH  020%=      5-min Rain = 0
KPD1 122341Z 23003KT 14/M09 A302 RMK A01 T01431086  RH  020%=      5-min Rain = 0
KPD1 122342Z 19005KT 14/M09 A302 RMK A01 T01441085  RH  020%=      5-min Rain = 0
KPD1 122343Z 17006KT 15/M09 A302 RMK A01 T01451085  RH  020%=      5-min Rain = 0
KPD1 122344Z 17009KT 15/M09 A302 RMK A01 T01461085  RH  020%=      5-min Rain = 0
KPD1 122345Z 16007KT 15/M09 A302 RMK A01 T01461085  RH  019%=      5-min Rain = 0
KPD1 122346Z 17006KT 15/M09 A302 RMK A01 T01451085  RH  019%=      5-min Rain = 0
KPD1 122347Z 17004KT 15/M09 A302 RMK A01 T01451086  RH  019%=      5-min Rain = 0
KPD1 122348Z 19006KT 14/M09 A302 RMK A01 T01441085  RH  020%=      5-min Rain = 0
KPD1 122349Z 20007G12KT 14/M09 A302 RMK A01 T01441085  RH  020%=      5-min Rain = 0
KPD1 122350Z 20011KT 14/M09 A302 RMK A01 T01441085  RH  020%=      5-min Rain = 0
KPD1 122351Z 20008KT 14/M09 A302 RMK A01 T01431086  RH  020%=      5-min Rain = 0
KPD1 122352Z 21006KT 14/M09 A302 RMK A01 T01441085  RH  020%=      5-min Rain = 0
KPD1 122353Z 20005KT 14/M09 A302 RMK A01 T01441085  RH  020%=      5-min Rain = 0
KPD1 122354Z 20006KT 14/M09 A302 RMK A01 T01441085  RH  020%=      5-min Rain = 0
KPD1 122355Z 19008KT 15/M08 A302 RMK A01 T01451084  RH  020%=      5-min Rain = 0
KPD1 122356Z 18005KT 15/M09 A302 RMK A01 T01451085  RH  020%=      5-min Rain = 0
KPD1 122357Z 19006KT 15/M09 A302 RMK A01 T01451085  RH  020%=      5-min Rain = 0
KPD1 122358Z 20003KT 15/M09 A302 RMK A01 T01451085  RH  020%=      5-min Rain = 0
KPD1 122359Z 20003KT 15/M09 A302 RMK A01 T01451085  RH  020%=      5-min Rain = 0
KPD1 130000Z 17005KT 15/M09 A302 RMK A01 T01451085  RH  020%=      5-min Rain = 0
KPD1 130001Z 17006KT 15/M09 A302 RMK A01 T01461085  RH  020%=      5-min Rain = 0
KPD1 130002Z 18007G12KT 15/M09 A302 RMK A01 T01461085  RH  020%=      5-min Rain = 0
KPD1 130003Z 18009KT 15/M09 A302 RMK A01 T01451085  RH  020%=      5-min Rain = 0
KPD1 130004Z 17008KT 14/M09 A302 RMK A01 T01441085  RH  020%=      5-min Rain = 0
KPD1 130005Z 17007KT 14/M09 A302 RMK A01 T01431085  RH  020%=      5-min Rain = 0
KPD1 130006Z 18006KT 14/M09 A302 RMK A01 T01421086  RH  020%=      5-min Rain = 0
KPD1 130007Z 18008KT 14/M09 A302 RMK A01 T01411086  RH  020%=      5-min Rain = 0
KPD1 130008Z 18008KT 14/M09 A302 RMK A01 T01401086  RH  020%=      5-min Rain = 0
KPD1 130009Z 17007KT 14/M09 A302 RMK A01 T01391086  RH  020%=      5-min Rain = 0
KPD1 130010Z 17008KT 14/M09 A302 RMK A01 T01381086  RH  020%=      5-min Rain = 0
KPD1 130011Z 17006KT 14/M09 A302 RMK A01 T01371086  RH  020%=      5-min Rain = 0
KPD1 130012Z 18006KT 14/M09 A302 RMK A01 T01371086  RH  021%=      5-min Rain = 0
KPD1 130013Z 17006KT 14/M09 A302 RMK A01 T01361086  RH  021%=      5-min Rain = 0
KPD1 130014Z 17005KT 14/M09 A302 RMK A01 T01361085  RH  021%=      5-min Rain = 0
KPD1 130015Z 15007KT 14/M09 A302 RMK A01 T01351085  RH  021%=      5-min Rain = 0
KPD1 130016Z 16006KT 14/M09 A302 RMK A01 T01351086  RH  021%=      5-min Rain = 0
KPD1 130017Z 15008KT 13/M09 A302 RMK A01 T01341087  RH  021%=      5-min Rain = 0
KPD1 130018Z 14007KT 13/M09 A302 RMK A01 T01341086  RH  021%=      5-min Rain = 0
KPD1 130019Z 15009G14KT 13/M09 A302 RMK A01 T01331087  RH  021%=      5-min Rain = 0
KPD1 130020Z 18005KT 13/M09 A302 RMK A01 T01331087  RH  021%=      5-min Rain = 0
KPD1 130021Z 16006KT 13/M09 A302 RMK A01 T01321086  RH  021%=      5-min Rain = 0
KPD1 130022Z 16007KT 13/M09 A302 RMK A01 T01321086  RH  021%=      5-min Rain = 0
KPD1 130023Z 17004KT 13/M09 A302 RMK A01 T01321086  RH  021%=      5-min Rain = 0
KPD1 130024Z 17004KT 13/M09 A302 RMK A01 T01311086  RH  021%=      5-min Rain = 0
KPD1 130025Z 18007KT 13/M09 A302 RMK A01 T01301086  RH  021%=      5-min Rain = 0
KPD1 130026Z 19006KT 13/M09 A302 RMK A01 T01291087  RH  021%=      5-min Rain = 0
KPD1 130027Z 19006KT 13/M09 A302 RMK A01 T01291087  RH  021%=      5-min Rain = 0
KPD1 130028Z 19005KT 13/M09 A302 RMK A01 T01291087  RH  021%=      5-min Rain = 0
KPD1 130029Z 19005KT 13/M09 A302 RMK A01 T01291086  RH  021%=      5-min Rain = 0
KPD1 130030Z 19006KT 13/M09 A302 RMK A01 T01291086  RH  021%=      5-min Rain = 0
KPD1 130031Z 18006KT 13/M09 A302 RMK A01 T01291087  RH  021%=      5-min Rain = 0
KPD1 130032Z 18005KT 13/M09 A302 RMK A01 T01281087  RH  021%=      5-min Rain = 0
KPD1 130033Z 18005KT 13/M09 A302 RMK A01 T01281087  RH  022%=      5-min Rain = 0
KPD1 130034Z 19005KT 13/M09 A302 RMK A01 T01271087  RH  022%=      5-min Rain = 0
KPD1 130035Z 18007KT 13/M09 A302 RMK A01 T01271088  RH  022%=      5-min Rain = 0
KPD1 130036Z 18007KT 13/M09 A302 RMK A01 T01271087  RH  022%=      5-min Rain = 0
KPD1 130037Z 18006KT 13/M09 A302 RMK A01 T01271087  RH  022%=      5-min Rain = 0
KPD1 130038Z 18007KT 13/M09 A302 RMK A01 T01271087  RH  022%=      5-min Rain = 0
KPD1 130039Z 17007KT 13/M09 A302 RMK A01 T01261087  RH  022%=      5-min Rain = 0
KPD1 130040Z 17007KT 13/M09 A302 RMK A01 T01261088  RH  022%=      5-min Rain = 0
KPD1 130041Z 18007KT 13/M09 A302 RMK A01 T01271087  RH  022%=      5-min Rain = 0
KPD1 130042Z 19006KT 13/M09 A302 RMK A01 T01261087  RH  022%=      5-min Rain = 0
KPD1 130043Z 18006KT 13/M09 A302 RMK A01 T01261087  RH  022%=      5-min Rain = 0
KPD1 130044Z 18008KT 13/M09 A302 RMK A01 T01251087  RH  022%=      5-min Rain = 0
KPD1 130045Z 17009KT 13/M09 A302 RMK A01 T01251087  RH  022%=      5-min Rain = 0
KPD1 130046Z 17009KT 13/M09 A302 RMK A01 T01251087  RH  022%=      5-min Rain = 0
KPD1 130047Z 17010KT 13/M09 A302 RMK A01 T01251087  RH  022%=      5-min Rain = 0
KPD1 130048Z 17008KT 13/M09 A302 RMK A01 T01251087  RH  022%=      5-min Rain = 0
KPD1 130049Z 18008KT 13/M09 A302 RMK A01 T01261086  RH  022%=      5-min Rain = 0
KPD1 130050Z 17007KT 13/M09 A302 RMK A01 T01261086  RH  022%=      5-min Rain = 0
KPD1 130051Z 18007KT 13/M09 A302 RMK A01 T01261086  RH  022%=      5-min Rain = 0
KPD1 130052Z 18006KT 13/M09 A302 RMK A01 T01251087  RH  022%=      5-min Rain = 0
KPD1 130053Z 18007KT 13/M09 A302 RMK A01 T01251086  RH  022%=      5-min Rain = 0
KPD1 130054Z 18007KT 12/M09 A302 RMK A01 T01241087  RH  022%=      5-min Rain = 0
KPD1 130055Z 18006KT 12/M09 A302 RMK A01 T01231087  RH  022%=      5-min Rain = 0
KPD1 130056Z 19006KT 12/M09 A302 RMK A01 T01221087  RH  022%=      5-min Rain = 0
KPD1 130057Z 18006KT 12/M09 A302 RMK A01 T01221087  RH  022%=      5-min Rain = 0
KPD1 130058Z 18006KT 12/M09 A302 RMK A01 T01221087  RH  022%=      5-min Rain = 0
KPD1 130059Z 18007KT 12/M09 A302 RMK A01 T01211087  RH  022%=      5-min Rain = 0
KPD1 130100Z 18006KT 12/M09 A302 RMK A01 T01211087  RH  023%=      5-min Rain = 0
KPD1 130101Z 18006KT 12/M09 A302 RMK A01 T01201087  RH  023%=      5-min Rain = 0
KPD1 130102Z 18006KT 12/M09 A302 RMK A01 T01201087  RH  023%=      5-min Rain = 0
KPD1 130103Z 18005KT 12/M09 A302 RMK A01 T01201087  RH  023%=      5-min Rain = 0
KPD1 130104Z 18005KT 12/M09 A302 RMK A01 T01191087  RH  023%=      5-min Rain = 0
KPD1 130105Z 19005KT 12/M09 A302 RMK A01 T01181087  RH  023%=      5-min Rain = 0
KPD1 130106Z 18006KT 12/M09 A302 RMK A01 T01181087  RH  023%=      5-min Rain = 0
KPD1 130107Z 18006KT 12/M09 A302 RMK A01 T01171087  RH  023%=      5-min Rain = 0
KPD1 130108Z 17006KT 12/M09 A302 RMK A01 T01171087  RH  023%=      5-min Rain = 0
KPD1 130109Z 18005KT 12/M09 A302 RMK A01 T01171087  RH  023%=      5-min Rain = 0
KPD1 130110Z 18006KT 12/M09 A3021 RMK A01 T01171087  RH  023%=      5-min Rain = 0
KPD1 130111Z 18005KT 12/M09 A3021 RMK A01 T01161087  RH  023%=      5-min Rain = 0
KPD1 130112Z 18006KT 12/M09 A3021 RMK A01 T01151087  RH  023%=      5-min Rain = 0
KPD1 130113Z 19006KT 12/M09 A3021 RMK A01 T01151087  RH  023%=      5-min Rain = 0
KPD1 130114Z 19007KT 12/M09 A3021 RMK A01 T01151087  RH  023%=      5-min Rain = 0
KPD1 130115Z 19006KT 12/M09 A3021 RMK A01 T01151086  RH  024%=      5-min Rain = 0
KPD1 130116Z 19006KT 12/M09 A3021 RMK A01 T01151086  RH  024%=      5-min Rain = 0
KPD1 130117Z 18006KT 12/M09 A3021 RMK A01 T01151086  RH  024%=      5-min Rain = 0
KPD1 130118Z 18007KT 12/M09 A3021 RMK A01 T01151086  RH  024%=      5-min Rain = 0
KPD1 130119Z 19006KT 12/M09 A3021 RMK A01 T01151086  RH  024%=      5-min Rain = 0
KPD1 130120Z 18006KT 12/M09 A3021 RMK A01 T01151086  RH  024%=      5-min Rain = 0
KPD1 130121Z 18005KT 12/M09 A3021 RMK A01 T01151086  RH  024%=      5-min Rain = 0
KPD1 130122Z 18005KT 12/M09 A3021 RMK A01 T01151086  RH  024%=      5-min Rain = 0
KPD1 130123Z 18005KT 11/M09 A3021 RMK A01 T01141086  RH  024%=      5-min Rain = 0
KPD1 130124Z 19006KT 11/M09 A3021 RMK A01 T01131087  RH  024%=      5-min Rain = 0
KPD1 130125Z 18006KT 11/M09 A3021 RMK A01 T01111087  RH  024%=      5-min Rain = 0
KPD1 130126Z 17006KT 11/M09 A3021 RMK A01 T01111087  RH  024%=      5-min Rain = 0
KPD1 130127Z 18006KT 11/M09 A3021 RMK A01 T01111086  RH  024%=      5-min Rain = 0
KPD1 130128Z 18006KT 11/M09 A3021 RMK A01 T01111087  RH  024%=      5-min Rain = 0
KPD1 130129Z 18006KT 11/M09 A3021 RMK A01 T01111086  RH  024%=      5-min Rain = 0
KPD1 130130Z 18006KT 11/M09 A3021 RMK A01 T01111086  RH  024%=      5-min Rain = 0
KPD1 130131Z 18006KT 11/M09 A3021 RMK A01 T01111086  RH  024%=      5-min Rain = 0
KPD1 130132Z 18006KT 11/M09 A3021 RMK A01 T01111086  RH  024%=      5-min Rain = 0
KPD1 130133Z 18007KT 11/M09 A3021 RMK A01 T01111086  RH  024%=      5-min Rain = 0
KPD1 130134Z 18006KT 11/M09 A3021 RMK A01 T01111086  RH  024%=      5-min Rain = 0
KPD1 130135Z 18006KT 11/M09 A3021 RMK A01 T01111086  RH  024%=      5-min Rain = 0
KPD1 130136Z 18007KT 11/M09 A3021 RMK A01 T01101086  RH  024%=      5-min Rain = 0
KPD1 130137Z 18006KT 11/M09 A3021 RMK A01 T01101086  RH  024%=      5-min Rain = 0
KPD1 130138Z 18006KT 11/M09 A3021 RMK A01 T01101086  RH  024%=      5-min Rain = 0
KPD1 130139Z 17006KT 11/M09 A3022 RMK A01 T01091086  RH  025%=      5-min Rain = 0
KPD1 130140Z 18006KT 11/M09 A3022 RMK A01 T01091086  RH  025%=      5-min Rain = 0
KPD1 130141Z 18007KT 11/M09 A3022 RMK A01 T01091086  RH  025%=      5-min Rain = 0
KPD1 130142Z 18006KT 11/M09 A3022 RMK A01 T01091086  RH  025%=      5-min Rain = 0
KPD1 130143Z 19007KT 11/M09 A3022 RMK A01 T01091086  RH  025%=      5-min Rain = 0
KPD1 130144Z 18007KT 11/M09 A3022 RMK A01 T01081086  RH  025%=      5-min Rain = 0
KPD1 130145Z 19007KT 11/M09 A3022 RMK A01 T01081086  RH  025%=      5-min Rain = 0
KPD1 130146Z 19006KT 11/M09 A3022 RMK A01 T01081086  RH  025%=      5-min Rain = 0
KPD1 130147Z 18007KT 11/M09 A3022 RMK A01 T01081085  RH  025%=      5-min Rain = 0
KPD1 130148Z 19007KT 11/M09 A3022 RMK A01 T01091085  RH  025%=      5-min Rain = 0
KPD1 130149Z 18007KT 11/M09 A3022 RMK A01 T01081086  RH  025%=      5-min Rain = 0
KPD1 130150Z 18006KT 11/M09 A3022 RMK A01 T01081086  RH  025%=      5-min Rain = 0
KPD1 130151Z 18007KT 11/M09 A3022 RMK A01 T01081086  RH  025%=      5-min Rain = 0
KPD1 130152Z 17008KT 11/M09 A3022 RMK A01 T01071086  RH  025%=      5-min Rain = 0
KPD1 130153Z 17008KT 11/M09 A3022 RMK A01 T01071086  RH  025%=      5-min Rain = 0
KPD1 130154Z 17009KT 11/M09 A3022 RMK A01 T01071086  RH  025%=      5-min Rain = 0
KPD1 130155Z 16008KT 11/M09 A3022 RMK A01 T01071085  RH  025%=      5-min Rain = 0
KPD1 130156Z 14006KT 11/M09 A3022 RMK A01 T01081085  RH  025%=      5-min Rain = 0
KPD1 130157Z 13005KT 11/M09 A3022 RMK A01 T01081085  RH  025%=      5-min Rain = 0
KPD1 130158Z 15006KT 11/M09 A3022 RMK A01 T01061085  RH  025%=      5-min Rain = 0
KPD1 130159Z 16006KT 11/M09 A3022 RMK A01 T01051085  RH  025%=      5-min Rain = 0
KPD1 130200Z 17005KT 10/M08 A3022 RMK A01 T01041083  RH  026%=      5-min Rain = 0
KPD1 130201Z 15004KT 10/M08 A3022 RMK A01 T01031081  RH  027%=      5-min Rain = 0
KPD1 130202Z 14005KT 10/M08 A3022 RMK A01 T01021080  RH  027%=      5-min Rain = 0
KPD1 130203Z 14005KT 10/M08 A3022 RMK A01 T01021078  RH  027%=      5-min Rain = 0
KPD1 130204Z 14008KT 10/M07 A3022 RMK A01 T01021073  RH  028%=      5-min Rain = 0
KPD1 130205Z 14006KT 10/M07 A3022 RMK A01 T01011069  RH  029%=      5-min Rain = 0
KPD1 130206Z 15006KT 10/M07 A3022 RMK A01 T01011067  RH  030%=      5-min Rain = 0
KPD1 130207Z 14006KT 10/M07 A3023 RMK A01 T01011067  RH  030%=      5-min Rain = 0
KPD1 130208Z 14007KT 10/M07 A3023 RMK A01 T01001068  RH  030%=      5-min Rain = 0
KPD1 130209Z 14005KT 10/M07 A3023 RMK A01 T00991067  RH  031%=      5-min Rain = 0
KPD1 130210Z 14007KT 10/M07 A3023 RMK A01 T00981065  RH  031%=      5-min Rain = 0
KPD1 130211Z 15008KT 10/M06 A3023 RMK A01 T00971064  RH  032%=      5-min Rain = 0
KPD1 130212Z 15009KT 10/M06 A3023 RMK A01 T00971062  RH  032%=      5-min Rain = 0
KPD1 130213Z 15008KT 10/M06 A3023 RMK A01 T00971062  RH  032%=      5-min Rain = 0
KPD1 130214Z 15008KT 10/M06 A3023 RMK A01 T00981061  RH  032%=      5-min Rain = 0
KPD1 130215Z 15007KT 10/M06 A3022 RMK A01 T00981060  RH  032%=      5-min Rain = 0
KPD1 130216Z 14008KT 10/M06 A3023 RMK A01 T00971061  RH  032%=      5-min Rain = 0
KPD1 130217Z 14006KT 10/M06 A3022 RMK A01 T00961060  RH  033%=      5-min Rain = 0
KPD1 130218Z 14006KT 10/M06 A3023 RMK A01 T00961061  RH  033%=      5-min Rain = 0
KPD1 130219Z 15005KT 10/M06 A3022 RMK A01 T00951061  RH  033%=      5-min Rain = 0
KPD1 130220Z 14005KT 09/M06 A3023 RMK A01 T00931061  RH  033%=      5-min Rain = 0
KPD1 130221Z 14006KT 09/M06 A3023 RMK A01 T00921061  RH  033%=      5-min Rain = 0
KPD1 130222Z 15008KT 09/M06 A3023 RMK A01 T00921061  RH  033%=      5-min Rain = 0
KPD1 130223Z 14006KT 09/M06 A3023 RMK A01 T00921060  RH  034%=      5-min Rain = 0
KPD1 130224Z 15006KT 09/M06 A3023 RMK A01 T00921060  RH  033%=      5-min Rain = 0
KPD1 130225Z 14006KT 09/M06 A3023 RMK A01 T00921060  RH  034%=      5-min Rain = 0
KPD1 130226Z 14006KT 09/M06 A3023 RMK A01 T00921060  RH  034%=      5-min Rain = 0
KPD1 130227Z 14007KT 09/M06 A3023 RMK A01 T00911061  RH  034%=      5-min Rain = 0
KPD1 130228Z 14005KT 09/M06 A3023 RMK A01 T00911060  RH  034%=      5-min Rain = 0
KPD1 130229Z 14006KT 09/M06 A3023 RMK A01 T00911060  RH  034%=      5-min Rain = 0
KPD1 130230Z 14006KT 09/M06 A3023 RMK A01 T00901061  RH  034%=      5-min Rain = 0
KPD1 130231Z 15005KT 09/M06 A3023 RMK A01 T00901060  RH  034%=      5-min Rain = 0
KPD1 130232Z 15005KT 09/M06 A3023 RMK A01 T00891061  RH  034%=      5-min Rain = 0
KPD1 130233Z 15005KT 09/M06 A3023 RMK A01 T00891061  RH  034%=      5-min Rain = 0
KPD1 130234Z 15004KT 09/M06 A3023 RMK A01 T00891061  RH  034%=      5-min Rain = 0
KPD1 130235Z 15005KT 09/M06 A3023 RMK A01 T00881061  RH  034%=      5-min Rain = 0
KPD1 130236Z 15006KT 09/M06 A3023 RMK A01 T00871061  RH  034%=      5-min Rain = 0
KPD1 130237Z 15003KT 09/M06 A3023 RMK A01 T00871061  RH  035%=      5-min Rain = 0
KPD1 130238Z 15006KT 09/M06 A3023 RMK A01 T00871061  RH  035%=      5-min Rain = 0
KPD1 130239Z 15005KT 09/M06 A3023 RMK A01 T00871061  RH  035%=      5-min Rain = 0
KPD1 130240Z 14007KT 09/M06 A3023 RMK A01 T00871060  RH  035%=      5-min Rain = 0
KPD1 130241Z 15006KT 09/M06 A3023 RMK A01 T00871060  RH  035%=      5-min Rain = 0
KPD1 130242Z 14006KT 09/M06 A3023 RMK A01 T00871060  RH  035%=      5-min Rain = 0
KPD1 130243Z 14006KT 09/M06 A3023 RMK A01 T00871061  RH  035%=      5-min Rain = 0
KPD1 130244Z 14007KT 09/M06 A3023 RMK A01 T00871061  RH  035%=      5-min Rain = 0
KPD1 130245Z 14006KT 09/M06 A3023 RMK A01 T00871061  RH  035%=      5-min Rain = 0
KPD1 130246Z 14007KT 09/M06 A3023 RMK A01 T00871061  RH  035%=      5-min Rain = 0
KPD1 130247Z 14005KT 09/M06 A3023 RMK A01 T00871060  RH  035%=      5-min Rain = 0
KPD1 130248Z 14006KT 09/M06 A3023 RMK A01 T00871060  RH  035%=      5-min Rain = 0
KPD1 130249Z 14005KT 09/M06 A3023 RMK A01 T00861060  RH  035%=      5-min Rain = 0
KPD1 130250Z 14005KT 09/M06 A3023 RMK A01 T00861061  RH  035%=      5-min Rain = 0
KPD1 130251Z 13006KT 09/M06 A3023 RMK A01 T00851061  RH  035%=      5-min Rain = 0
KPD1 130252Z 14006KT 09/M06 A3023 RMK A01 T00851060  RH  035%=      5-min Rain = 0
KPD1 130253Z 14006KT 09/M06 A3023 RMK A01 T00851060  RH  035%=      5-min Rain = 0
KPD1 130254Z 14005KT 09/M06 A3023 RMK A01 T00861060  RH  035%=      5-min Rain = 0
KPD1 130255Z 13008KT 09/M06 A3023 RMK A01 T00851061  RH  035%=      5-min Rain = 0
KPD1 130256Z 14009KT 08/M06 A3023 RMK A01 T00841061  RH  035%=      5-min Rain = 0
KPD1 130257Z 15007KT 08/M06 A3023 RMK A01 T00841060  RH  035%=      5-min Rain = 0
KPD1 130258Z 15006KT 09/M06 A3023 RMK A01 T00851060  RH  035%=      5-min Rain = 0
KPD1 130259Z 14005KT 09/M06 A3023 RMK A01 T00851060  RH  035%=      5-min Rain = 0
KPD1 130300Z 14005KT 08/M06 A3023 RMK A01 T00841061  RH  035%=      5-min Rain = 0
KPD1 130301Z 14007KT 08/M06 A3023 RMK A01 T00841060  RH  035%=      5-min Rain = 0
KPD1 130302Z 15007KT 08/M06 A3023 RMK A01 T00841060  RH  036%=      5-min Rain = 0
KPD1 130303Z 14007KT 08/M06 A3023 RMK A01 T00841060  RH  036%=      5-min Rain = 0
KPD1 130304Z 15007KT 08/M06 A3023 RMK A01 T00831060  RH  036%=      5-min Rain = 0
KPD1 130305Z 15008KT 08/M06 A3023 RMK A01 T00841060  RH  036%=      5-min Rain = 0
KPD1 130306Z 15007KT 08/M06 A3023 RMK A01 T00841060  RH  036%=      5-min Rain = 0
KPD1 130307Z 15006KT 08/M06 A3023 RMK A01 T00841060  RH  035%=      5-min Rain = 0
KPD1 130308Z 15006KT 08/M06 A3023 RMK A01 T00841060  RH  035%=      5-min Rain = 0
KPD1 130309Z 15008KT 08/M06 A3023 RMK A01 T00841060  RH  035%=      5-min Rain = 0
KPD1 130310Z 15005KT 08/M06 A3023 RMK A01 T00831060  RH  036%=      5-min Rain = 0
KPD1 130311Z 15005KT 08/M06 A3023 RMK A01 T00831060  RH  036%=      5-min Rain = 0
KPD1 130312Z 15004KT 08/M06 A3023 RMK A01 T00821061  RH  036%=      5-min Rain = 0
KPD1 130313Z 15005KT 08/M06 A3023 RMK A01 T00821061  RH  036%=      5-min Rain = 0
KPD1 130314Z 14006KT 08/M06 A3023 RMK A01 T00811061  RH  036%=      5-min Rain = 0
KPD1 130315Z 15005KT 08/M06 A3023 RMK A01 T00811061  RH  036%=      5-min Rain = 0
KPD1 130316Z 15005KT 08/M06 A3023 RMK A01 T00811061  RH  036%=      5-min Rain = 0
KPD1 130317Z 15004KT 08/M06 A3023 RMK A01 T00801061  RH  036%=      5-min Rain = 0
KPD1 130318Z 15004KT 08/M06 A3023 RMK A01 T00801061  RH  036%=      5-min Rain = 0
KPD1 130319Z 16005KT 08/M06 A3023 RMK A01 T00791061  RH  036%=      5-min Rain = 0
KPD1 130320Z 15007KT 08/M06 A3023 RMK A01 T00791062  RH  036%=      5-min Rain = 0
KPD1 130321Z 16007KT 08/M06 A3023 RMK A01 T00781061  RH  037%=      5-min Rain = 0
KPD1 130322Z 15007KT 08/M06 A3024 RMK A01 T00781061  RH  037%=      5-min Rain = 0
KPD1 130323Z 15005KT 08/M06 A3024 RMK A01 T00791061  RH  037%=      5-min Rain = 0
KPD1 130324Z 15005KT 08/M06 A3024 RMK A01 T00791061  RH  037%=      5-min Rain = 0
KPD1 130325Z 16005KT 08/M06 A3023 RMK A01 T00791061  RH  037%=      5-min Rain = 0
KPD1 130326Z 16006KT 08/M06 A3023 RMK A01 T00791061  RH  037%=      5-min Rain = 0
KPD1 130327Z 15006KT 08/M06 A3023 RMK A01 T00791061  RH  037%=      5-min Rain = 0
KPD1 130328Z 15005KT 08/M06 A3023 RMK A01 T00781061  RH  037%=      5-min Rain = 0
KPD1 130329Z 16005KT 08/M06 A3023 RMK A01 T00781061  RH  037%=      5-min Rain = 0
KPD1 130330Z 16006KT 08/M06 A3023 RMK A01 T00781061  RH  037%=      5-min Rain = 0
KPD1 130331Z 15005KT 08/M06 A3023 RMK A01 T00771061  RH  037%=      5-min Rain = 0
KPD1 130332Z 16004KT 08/M06 A3023 RMK A01 T00771061  RH  037%=      5-min Rain = 0
KPD1 130333Z 15007KT 08/M06 A3023 RMK A01 T00761061  RH  037%=      5-min Rain = 0
KPD1 130334Z 15006KT 08/M06 A3023 RMK A01 T00761061  RH  037%=      5-min Rain = 0
KPD1 130335Z 15005KT 08/M06 A3023 RMK A01 T00761061  RH  037%=      5-min Rain = 0
KPD1 130336Z 15005KT 08/M06 A3023 RMK A01 T00761061  RH  037%=      5-min Rain = 0
KPD1 130337Z 16004KT 08/M06 A3023 RMK A01 T00761061  RH  037%=      5-min Rain = 0
KPD1 130338Z 16006KT 08/M06 A3023 RMK A01 T00761061  RH  037%=      5-min Rain = 0
KPD1 130339Z 15005KT 08/M06 A3023 RMK A01 T00751062  RH  037%=      5-min Rain = 0
KPD1 130340Z 16006KT 08/M06 A3023 RMK A01 T00751061  RH  037%=      5-min Rain = 0
KPD1 130341Z 16005KT 08/M06 A3023 RMK A01 T00751061  RH  037%=      5-min Rain = 0
KPD1 130342Z 16006KT 07/M06 A3023 RMK A01 T00741062  RH  037%=      5-min Rain = 0
KPD1 130343Z 16006KT 07/M06 A3023 RMK A01 T00741061  RH  038%=      5-min Rain = 0
KPD1 130344Z 15005KT 07/M06 A3023 RMK A01 T00741061  RH  038%=      5-min Rain = 0
KPD1 130345Z 15005KT 08/M06 A3023 RMK A01 T00751061  RH  037%=      5-min Rain = 0
KPD1 130346Z 16005KT 08/M06 A3023 RMK A01 T00751061  RH  037%=      5-min Rain = 0
KPD1 130347Z 16006KT 07/M06 A3023 RMK A01 T00741062  RH  038%=      5-min Rain = 0
KPD1 130348Z 16005KT 07/M06 A3023 RMK A01 T00731062  RH  038%=      5-min Rain = 0
KPD1 130349Z 16005KT 07/M06 A3023 RMK A01 T00731062  RH  038%=      5-min Rain = 0
KPD1 130350Z 16006KT 07/M06 A3023 RMK A01 T00731062  RH  038%=      5-min Rain = 0
KPD1 130351Z 15006KT 07/M06 A3023 RMK A01 T00731062  RH  038%=      5-min Rain = 0
KPD1 130352Z 16005KT 07/M06 A3023 RMK A01 T00721062  RH  038%=      5-min Rain = 0
KPD1 130353Z 16006KT 07/M06 A3023 RMK A01 T00721061  RH  038%=      5-min Rain = 0
KPD1 130354Z 16005KT 07/M06 A3023 RMK A01 T00721061  RH  038%=      5-min Rain = 0
KPD1 130355Z 16006KT 07/M06 A3023 RMK A01 T00721061  RH  038%=      5-min Rain = 0
KPD1 130356Z 16005KT 07/M06 A3023 RMK A01 T00721062  RH  038%=      5-min Rain = 0
KPD1 130357Z 17006KT 07/M06 A3023 RMK A01 T00721062  RH  038%=      5-min Rain = 0
KPD1 130358Z 16008KT 07/M06 A3023 RMK A01 T00721062  RH  038%=      5-min Rain = 0
KPD1 130359Z 16007KT 07/M06 A3023 RMK A01 T00721061  RH  038%=      5-min Rain = 0
KPD1 130400Z 17006KT 07/M06 A3023 RMK A01 T00731061  RH  038%=      5-min Rain = 0
KPD1 130401Z 16006KT 07/M06 A3023 RMK A01 T00731061  RH  038%=      5-min Rain = 0
KPD1 130402Z 17005KT 07/M06 A3023 RMK A01 T00731061  RH  038%=      5-min Rain = 0
KPD1 130403Z 16007KT 07/M06 A3023 RMK A01 T00731061  RH  038%=      5-min Rain = 0
KPD1 130404Z 16008KT 07/M06 A3023 RMK A01 T00731061  RH  038%=      5-min Rain = 0
KPD1 130405Z 17006KT 07/M06 A3023 RMK A01 T00731061  RH  038%=      5-min Rain = 0
KPD1 130406Z 16007KT 07/M06 A3023 RMK A01 T00731061  RH  038%=      5-min Rain = 0
KPD1 130407Z 17007KT 07/M06 A3023 RMK A01 T00731061  RH  038%=      5-min Rain = 0
KPD1 130408Z 17007KT 07/M06 A3023 RMK A01 T00731061  RH  038%=      5-min Rain = 0
KPD1 130409Z 17007KT 07/M06 A3023 RMK A01 T00731061  RH  038%=      5-min Rain = 0
KPD1 130410Z 16008KT 07/M06 A3023 RMK A01 T00731061  RH  038%=      5-min Rain = 0
KPD1 130411Z 17006KT 07/M06 A3023 RMK A01 T00731061  RH  038%=      5-min Rain = 0
KPD1 130412Z 17006KT 07/M06 A3024 RMK A01 T00741061  RH  038%=      5-min Rain = 0
KPD1 130413Z 17005KT 07/M06 A3024 RMK A01 T00731061  RH  038%=      5-min Rain = 0
KPD1 130414Z 17006KT 07/M06 A3024 RMK A01 T00721062  RH  038%=      5-min Rain = 0
KPD1 130415Z 16005KT 07/M06 A3024 RMK A01 T00721062  RH  038%=      5-min Rain = 0
KPD1 130416Z 16007KT 07/M06 A3024 RMK A01 T00721061  RH  038%=      5-min Rain = 0
KPD1 130417Z 16006KT 07/M06 A3024 RMK A01 T00721062  RH  038%=      5-min Rain = 0
KPD1 130418Z 16006KT 07/M06 A3024 RMK A01 T00711062  RH  038%=      5-min Rain = 0
KPD1 130419Z 17007KT 07/M06 A3024 RMK A01 T00711061  RH  038%=      5-min Rain = 0
KPD1 130420Z 17006KT 07/M06 A3024 RMK A01 T00711061  RH  038%=      5-min Rain = 0
KPD1 130421Z 17006KT 07/M06 A3024 RMK A01 T00711061  RH  038%=      5-min Rain = 0
KPD1 130422Z 17006KT 07/M06 A3024 RMK A01 T00711062  RH  038%=      5-min Rain = 0
KPD1 130423Z 17006KT 07/M06 A3024 RMK A01 T00701062  RH  038%=      5-min Rain = 0
KPD1 130424Z 17007KT 07/M06 A3024 RMK A01 T00701062  RH  039%=      5-min Rain = 0
KPD1 130425Z 17006KT 07/M06 A3024 RMK A01 T00701062  RH  039%=      5-min Rain = 0
KPD1 130426Z 17008KT 07/M06 A3023 RMK A01 T00701062  RH  039%=      5-min Rain = 0
KPD1 130427Z 17007KT 07/M06 A3023 RMK A01 T00701062  RH  039%=      5-min Rain = 0
KPD1 130428Z 17007KT 07/M06 A3023 RMK A01 T00701062  RH  039%=      5-min Rain = 0
KPD1 130429Z 17006KT 07/M06 A3023 RMK A01 T00701062  RH  039%=      5-min Rain = 0
KPD1 130430Z 17008KT 07/M06 A3023 RMK A01 T00701062  RH  038%=      5-min Rain = 0
KPD1 130431Z 18008KT 07/M06 A3023 RMK A01 T00701062  RH  039%=      5-min Rain = 0
KPD1 130432Z 17006KT 07/M06 A3023 RMK A01 T00701062  RH  039%=      5-min Rain = 0
KPD1 130433Z 17006KT 07/M06 A3023 RMK A01 T00701062  RH  038%=      5-min Rain = 0
KPD1 130434Z 17007KT 07/M06 A3023 RMK A01 T00701062  RH  039%=      5-min Rain = 0
KPD1 130435Z 17006KT 07/M06 A3023 RMK A01 T00691062  RH  039%=      5-min Rain = 0
KPD1 130436Z 17007KT 07/M06 A3023 RMK A01 T00691062  RH  039%=      5-min Rain = 0
KPD1 130437Z 17008KT 07/M06 A3023 RMK A01 T00691062  RH  039%=      5-min Rain = 0
KPD1 130438Z 17007KT 07/M06 A3023 RMK A01 T00691062  RH  039%=      5-min Rain = 0
KPD1 130439Z 17007KT 07/M06 A3023 RMK A01 T00691062  RH  039%=      5-min Rain = 0
KPD1 130440Z 17006KT 07/M06 A3023 RMK A01 T00691062  RH  039%=      5-min Rain = 0
KPD1 130441Z 17007KT 07/M06 A3023 RMK A01 T00691062  RH  039%=      5-min Rain = 0
KPD1 130442Z 17005KT 07/M06 A3023 RMK A01 T00691062  RH  039%=      5-min Rain = 0
KPD1 130443Z 17007KT 07/M06 A3023 RMK A01 T00691062  RH  039%=      5-min Rain = 0
KPD1 130444Z 17007KT 07/M06 A3023 RMK A01 T00681063  RH  039%=      5-min Rain = 0
KPD1 130445Z 18008KT 07/M06 A3023 RMK A01 T00691063  RH  039%=      5-min Rain = 0
KPD1 130446Z 17008KT 07/M06 A3023 RMK A01 T00681062  RH  039%=      5-min Rain = 0
KPD1 130447Z 17007KT 07/M06 A3023 RMK A01 T00681063  RH  039%=      5-min Rain = 0
KPD1 130448Z 17005KT 07/M06 A3023 RMK A01 T00681062  RH  039%=      5-min Rain = 0
KPD1 130449Z 17007KT 07/M06 A3023 RMK A01 T00681063  RH  039%=      5-min Rain = 0
KPD1 130450Z 17007KT 07/M06 A3023 RMK A01 T00681063  RH  039%=      5-min Rain = 0
KPD1 130451Z 17006KT 07/M06 A3023 RMK A01 T00681063  RH  039%=      5-min Rain = 0
KPD1 130452Z 17007KT 07/M06 A3023 RMK A01 T00671063  RH  039%=      5-min Rain = 0
KPD1 130453Z 17007KT 07/M06 A3023 RMK A01 T00681062  RH  039%=      5-min Rain = 0
KPD1 130454Z 17007KT 07/M06 A3023 RMK A01 T00671063  RH  039%=      5-min Rain = 0
KPD1 130455Z 17006KT 07/M06 A3023 RMK A01 T00671063  RH  039%=      5-min Rain = 0
KPD1 130456Z 17006KT 07/M06 A3023 RMK A01 T00671063  RH  039%=      5-min Rain = 0
KPD1 130457Z 17007KT 07/M06 A3023 RMK A01 T00671063  RH  039%=      5-min Rain = 0
KPD1 130458Z 17009KT 07/M06 A3023 RMK A01 T00661064  RH  039%=      5-min Rain = 0
KPD1 130459Z 17007KT 07/M06 A3023 RMK A01 T00671063  RH  039%=      5-min Rain = 0

Page generated in 0.154 seconds.